<?xml version="1.0" encoding="UTF-8" standalone="no" ?>
<gpx xmlns="http://www.topografix.com/GPX/1/1" xmlns:xsi="http://www.w3.org/2001/XMLSchema-instance" xsi:schemaLocation="http://www.topografix.com/GPX/1/1 http://www.topografix.com/GPX/1/1/gpx.xsd" version="1.1" creator="VisuGPX - https://www.visugpx.com">
  <metadata>
    <name>Tour de France 2019</name>
    <desc><![CDATA[4272km en 2 mois en tandem avec notre petit chien dans le panier avant]]></desc>
  </metadata>
  <trk>
    <name><![CDATA[Tracé 20191112-082108]]></name>
    <trkseg>
      <trkpt lat="48.55252" lon="-1.51282">
        <ele>18.676</ele>
        <time>2019-11-12T07:23:50Z</time>
      </trkpt>
      <trkpt lat="48.55271" lon="-1.51225">
        <ele>17.389</ele>
        <time>2019-11-12T07:29:38Z</time>
      </trkpt>
      <trkpt lat="48.55295" lon="-1.51081">
        <ele>10.159</ele>
        <time>2019-11-12T07:31:29Z</time>
      </trkpt>
      <trkpt lat="48.55315" lon="-1.5093">
        <ele>18.865</ele>
        <time>2019-11-12T07:31:59Z</time>
      </trkpt>
      <trkpt lat="48.55421" lon="-1.50949">
        <ele>30.95</ele>
        <time>2019-11-12T07:32:32Z</time>
      </trkpt>
      <trkpt lat="48.55594" lon="-1.50942">
        <ele>30.051</ele>
        <time>2019-11-12T07:33:05Z</time>
      </trkpt>
      <trkpt lat="48.55749" lon="-1.50919">
        <ele>16.891</ele>
        <time>2019-11-12T07:33:35Z</time>
      </trkpt>
      <trkpt lat="48.55911" lon="-1.50924">
        <ele>5.93</ele>
        <time>2019-11-12T07:34:08Z</time>
      </trkpt>
      <trkpt lat="48.56069" lon="-1.50934">
        <ele>6.293</ele>
        <time>2019-11-12T07:34:41Z</time>
      </trkpt>
      <trkpt lat="48.56161" lon="-1.5095">
        <ele>6.342</ele>
        <time>2019-11-12T07:35:11Z</time>
      </trkpt>
      <trkpt lat="48.5626" lon="-1.50999">
        <ele>11.878</ele>
        <time>2019-11-12T07:35:44Z</time>
      </trkpt>
      <trkpt lat="48.56371" lon="-1.51108">
        <ele>12.473</ele>
        <time>2019-11-12T07:36:17Z</time>
      </trkpt>
      <trkpt lat="48.56353" lon="-1.5088">
        <ele>7.705</ele>
        <time>2019-11-12T07:36:47Z</time>
      </trkpt>
      <trkpt lat="48.56359" lon="-1.50654">
        <ele>7.427</ele>
        <time>2019-11-12T07:37:20Z</time>
      </trkpt>
      <trkpt lat="48.56423" lon="-1.50512">
        <ele>13.133</ele>
        <time>2019-11-12T07:37:53Z</time>
      </trkpt>
      <trkpt lat="48.56481" lon="-1.50403">
        <ele>18.477</ele>
        <time>2019-11-12T07:38:23Z</time>
      </trkpt>
      <trkpt lat="48.56588" lon="-1.50296">
        <ele>18.682</ele>
        <time>2019-11-12T07:38:56Z</time>
      </trkpt>
      <trkpt lat="48.56706" lon="-1.50225">
        <ele>15.852</ele>
        <time>2019-11-12T07:39:29Z</time>
      </trkpt>
      <trkpt lat="48.56825" lon="-1.50154">
        <ele>15.78</ele>
        <time>2019-11-12T07:39:59Z</time>
      </trkpt>
      <trkpt lat="48.56948" lon="-1.50058">
        <ele>18.613</ele>
        <time>2019-11-12T07:40:32Z</time>
      </trkpt>
      <trkpt lat="48.57049" lon="-1.49938">
        <ele>18.066</ele>
        <time>2019-11-12T07:41:02Z</time>
      </trkpt>
      <trkpt lat="48.57148" lon="-1.49763">
        <ele>19.528</ele>
        <time>2019-11-12T07:41:35Z</time>
      </trkpt>
      <trkpt lat="48.57249" lon="-1.49617">
        <ele>13.997</ele>
        <time>2019-11-12T07:42:08Z</time>
      </trkpt>
      <trkpt lat="48.57335" lon="-1.49498">
        <ele>15.965</ele>
        <time>2019-11-12T07:42:38Z</time>
      </trkpt>
      <trkpt lat="48.57411" lon="-1.49346">
        <ele>16.43</ele>
        <time>2019-11-12T07:43:11Z</time>
      </trkpt>
      <trkpt lat="48.57518" lon="-1.49211">
        <ele>17.102</ele>
        <time>2019-11-12T07:43:44Z</time>
      </trkpt>
      <trkpt lat="48.57618" lon="-1.49143">
        <ele>22.659</ele>
        <time>2019-11-12T07:44:14Z</time>
      </trkpt>
      <trkpt lat="48.57714" lon="-1.49057">
        <ele>26.275</ele>
        <time>2019-11-12T07:44:47Z</time>
      </trkpt>
      <trkpt lat="48.57775" lon="-1.48898">
        <ele>24.661</ele>
        <time>2019-11-12T07:45:20Z</time>
      </trkpt>
      <trkpt lat="48.57871" lon="-1.48862">
        <ele>26.111</ele>
        <time>2019-11-12T07:45:50Z</time>
      </trkpt>
      <trkpt lat="48.57998" lon="-1.48825">
        <ele>24.587</ele>
        <time>2019-11-12T07:46:23Z</time>
      </trkpt>
      <trkpt lat="48.58107" lon="-1.48732">
        <ele>27.921</ele>
        <time>2019-11-12T07:46:56Z</time>
      </trkpt>
      <trkpt lat="48.58206" lon="-1.48629">
        <ele>29.91</ele>
        <time>2019-11-12T07:47:26Z</time>
      </trkpt>
      <trkpt lat="48.58322" lon="-1.48497">
        <ele>30.792</ele>
        <time>2019-11-12T07:47:59Z</time>
      </trkpt>
      <trkpt lat="48.58454" lon="-1.48365">
        <ele>28.982</ele>
        <time>2019-11-12T07:48:32Z</time>
      </trkpt>
      <trkpt lat="48.58544" lon="-1.48229">
        <ele>29.795</ele>
        <time>2019-11-12T07:49:02Z</time>
      </trkpt>
      <trkpt lat="48.58598" lon="-1.48105">
        <ele>33.772</ele>
        <time>2019-11-12T07:49:35Z</time>
      </trkpt>
      <trkpt lat="48.58614" lon="-1.48007">
        <ele>40.734</ele>
        <time>2019-11-12T07:50:08Z</time>
      </trkpt>
      <trkpt lat="48.58651" lon="-1.47955">
        <ele>43.503</ele>
        <time>2019-11-12T07:50:38Z</time>
      </trkpt>
      <trkpt lat="48.58743" lon="-1.47917">
        <ele>47.947</ele>
        <time>2019-11-12T07:51:11Z</time>
      </trkpt>
      <trkpt lat="48.58825" lon="-1.47874">
        <ele>55.286</ele>
        <time>2019-11-12T07:51:44Z</time>
      </trkpt>
      <trkpt lat="48.58895" lon="-1.47823">
        <ele>48.924</ele>
        <time>2019-11-12T07:52:14Z</time>
      </trkpt>
      <trkpt lat="48.59038" lon="-1.47802">
        <ele>49.119</ele>
        <time>2019-11-12T07:52:47Z</time>
      </trkpt>
      <trkpt lat="48.59303" lon="-1.47691">
        <ele>33.426</ele>
        <time>2019-11-12T07:53:20Z</time>
      </trkpt>
      <trkpt lat="48.59522" lon="-1.47656">
        <ele>26.263</ele>
        <time>2019-11-12T07:53:50Z</time>
      </trkpt>
      <trkpt lat="48.59805" lon="-1.47576">
        <ele>17.95</ele>
        <time>2019-11-12T07:54:23Z</time>
      </trkpt>
      <trkpt lat="48.60001" lon="-1.47457">
        <ele>11.686</ele>
        <time>2019-11-12T07:54:56Z</time>
      </trkpt>
      <trkpt lat="48.60083" lon="-1.47286">
        <ele>10.603</ele>
        <time>2019-11-12T07:55:26Z</time>
      </trkpt>
      <trkpt lat="48.6016" lon="-1.47233">
        <ele>9.657</ele>
        <time>2019-11-12T07:57:41.001Z</time>
      </trkpt>
      <trkpt lat="48.60262" lon="-1.47138">
        <ele>14.001</ele>
        <time>2019-11-12T07:58:14.001Z</time>
      </trkpt>
      <trkpt lat="48.60381" lon="-1.47019">
        <ele>11.346</ele>
        <time>2019-11-12T07:58:44.001Z</time>
      </trkpt>
      <trkpt lat="48.60476" lon="-1.4685">
        <ele>12.562</ele>
        <time>2019-11-12T07:59:17.001Z</time>
      </trkpt>
      <trkpt lat="48.60571" lon="-1.46642">
        <ele>10.842</ele>
        <time>2019-11-12T07:59:50.001Z</time>
      </trkpt>
      <trkpt lat="48.60674" lon="-1.46484">
        <ele>11.311</ele>
        <time>2019-11-12T08:00:20.001Z</time>
      </trkpt>
      <trkpt lat="48.60765" lon="-1.46286">
        <ele>10.181</ele>
        <time>2019-11-12T08:00:53.001Z</time>
      </trkpt>
      <trkpt lat="48.60865" lon="-1.46115">
        <ele>9.169</ele>
        <time>2019-11-12T08:01:23.001Z</time>
      </trkpt>
      <trkpt lat="48.6094" lon="-1.4593">
        <ele>11.129</ele>
        <time>2019-11-12T08:01:56.001Z</time>
      </trkpt>
      <trkpt lat="48.6103" lon="-1.45785">
        <ele>12.597</ele>
        <time>2019-11-12T08:02:29.001Z</time>
      </trkpt>
      <trkpt lat="48.6113" lon="-1.45756">
        <ele>11.763</ele>
        <time>2019-11-12T08:02:59.001Z</time>
      </trkpt>
      <trkpt lat="48.61244" lon="-1.45689">
        <ele>13.727</ele>
        <time>2019-11-12T08:03:32.001Z</time>
      </trkpt>
      <trkpt lat="48.61333" lon="-1.45566">
        <ele>12.322</ele>
        <time>2019-11-12T08:04:05.001Z</time>
      </trkpt>
      <trkpt lat="48.61414" lon="-1.45424">
        <ele>12.737</ele>
        <time>2019-11-12T08:04:35.001Z</time>
      </trkpt>
      <trkpt lat="48.61483" lon="-1.45257">
        <ele>14.301</ele>
        <time>2019-11-12T08:05:08.001Z</time>
      </trkpt>
      <trkpt lat="48.61579" lon="-1.45113">
        <ele>14.259</ele>
        <time>2019-11-12T08:05:41.001Z</time>
      </trkpt>
      <trkpt lat="48.61687" lon="-1.44991">
        <ele>15.489</ele>
        <time>2019-11-12T08:06:11.001Z</time>
      </trkpt>
      <trkpt lat="48.61835" lon="-1.44895">
        <ele>13.605</ele>
        <time>2019-11-12T08:06:44.001Z</time>
      </trkpt>
      <trkpt lat="48.61989" lon="-1.44815">
        <ele>12.989</ele>
        <time>2019-11-12T08:07:17.001Z</time>
      </trkpt>
      <trkpt lat="48.62123" lon="-1.44704">
        <ele>7.647</ele>
        <time>2019-11-12T08:07:47.001Z</time>
      </trkpt>
      <trkpt lat="48.6226" lon="-1.4465">
        <ele>8.448</ele>
        <time>2019-11-12T08:08:20.001Z</time>
      </trkpt>
      <trkpt lat="48.62358" lon="-1.44637">
        <ele>10.584</ele>
        <time>2019-11-12T08:08:56.001Z</time>
      </trkpt>
      <trkpt lat="48.62477" lon="-1.44548">
        <ele>7.631</ele>
        <time>2019-11-12T08:09:26.001Z</time>
      </trkpt>
      <trkpt lat="48.62582" lon="-1.44383">
        <ele>8.573</ele>
        <time>2019-11-12T08:09:59.001Z</time>
      </trkpt>
      <trkpt lat="48.62694" lon="-1.44224">
        <ele>8.362</ele>
        <time>2019-11-12T08:10:32.001Z</time>
      </trkpt>
      <trkpt lat="48.62771" lon="-1.44043">
        <ele>14.042</ele>
        <time>2019-11-12T08:11:02Z</time>
      </trkpt>
      <trkpt lat="48.62827" lon="-1.43801">
        <ele>14.631</ele>
        <time>2019-11-12T08:11:35.001Z</time>
      </trkpt>
      <trkpt lat="48.62944" lon="-1.43621">
        <ele>10.688</ele>
        <time>2019-11-12T08:12:08.001Z</time>
      </trkpt>
      <trkpt lat="48.63045" lon="-1.43479">
        <ele>12.565</ele>
        <time>2019-11-12T08:12:38.001Z</time>
      </trkpt>
      <trkpt lat="48.63124" lon="-1.4328">
        <ele>15.283</ele>
        <time>2019-11-12T08:13:11.001Z</time>
      </trkpt>
      <trkpt lat="48.63231" lon="-1.43095">
        <ele>12.814</ele>
        <time>2019-11-12T08:13:44.001Z</time>
      </trkpt>
      <trkpt lat="48.63328" lon="-1.4293">
        <ele>11.935</ele>
        <time>2019-11-12T08:14:14.001Z</time>
      </trkpt>
      <trkpt lat="48.63441" lon="-1.42776">
        <ele>11.54</ele>
        <time>2019-11-12T08:14:47.001Z</time>
      </trkpt>
      <trkpt lat="48.6357" lon="-1.42645">
        <ele>9.758</ele>
        <time>2019-11-12T08:15:20.001Z</time>
      </trkpt>
      <trkpt lat="48.63708" lon="-1.42611">
        <ele>8.939</ele>
        <time>2019-11-12T08:15:50.001Z</time>
      </trkpt>
      <trkpt lat="48.63802" lon="-1.42526">
        <ele>10.535</ele>
        <time>2019-11-12T08:17:32.001Z</time>
      </trkpt>
      <trkpt lat="48.63855" lon="-1.42472">
        <ele>8.959</ele>
        <time>2019-11-12T08:18:23.001Z</time>
      </trkpt>
      <trkpt lat="48.63905" lon="-1.42327">
        <ele>10.449</ele>
        <time>2019-11-12T08:18:53.001Z</time>
      </trkpt>
      <trkpt lat="48.64003" lon="-1.422">
        <ele>9.125</ele>
        <time>2019-11-12T08:19:26.001Z</time>
      </trkpt>
      <trkpt lat="48.63875" lon="-1.42105">
        <ele>6.04</ele>
        <time>2019-11-12T08:19:59.001Z</time>
      </trkpt>
      <trkpt lat="48.63782" lon="-1.41952">
        <ele>5.896</ele>
        <time>2019-11-12T08:20:29.001Z</time>
      </trkpt>
      <trkpt lat="48.63763" lon="-1.41731">
        <ele>6.488</ele>
        <time>2019-11-12T08:21:02Z</time>
      </trkpt>
      <trkpt lat="48.6378" lon="-1.41523">
        <ele>7.011</ele>
        <time>2019-11-12T08:21:32.001Z</time>
      </trkpt>
      <trkpt lat="48.63827" lon="-1.41295">
        <ele>8.071</ele>
        <time>2019-11-12T08:22:05.001Z</time>
      </trkpt>
      <trkpt lat="48.63878" lon="-1.41038">
        <ele>9.066</ele>
        <time>2019-11-12T08:22:38.001Z</time>
      </trkpt>
      <trkpt lat="48.63916" lon="-1.40798">
        <ele>6.265</ele>
        <time>2019-11-12T08:23:08.001Z</time>
      </trkpt>
      <trkpt lat="48.63945" lon="-1.40547">
        <ele>8.142</ele>
        <time>2019-11-12T08:23:41.001Z</time>
      </trkpt>
      <trkpt lat="48.63983" lon="-1.40304">
        <ele>7.581</ele>
        <time>2019-11-12T08:24:14.001Z</time>
      </trkpt>
      <trkpt lat="48.64027" lon="-1.40086">
        <ele>9.47</ele>
        <time>2019-11-12T08:24:44.001Z</time>
      </trkpt>
      <trkpt lat="48.64108" lon="-1.3986">
        <ele>8.277</ele>
        <time>2019-11-12T08:25:17.001Z</time>
      </trkpt>
      <trkpt lat="48.64237" lon="-1.39711">
        <ele>7.921</ele>
        <time>2019-11-12T08:25:50.001Z</time>
      </trkpt>
      <trkpt lat="48.64366" lon="-1.39594">
        <ele>7.542</ele>
        <time>2019-11-12T08:26:20.001Z</time>
      </trkpt>
      <trkpt lat="48.64445" lon="-1.39378">
        <ele>7.748</ele>
        <time>2019-11-12T08:26:53.001Z</time>
      </trkpt>
      <trkpt lat="48.64465" lon="-1.39218">
        <ele>12.69</ele>
        <time>2019-11-12T08:27:26.001Z</time>
      </trkpt>
      <trkpt lat="48.64449" lon="-1.3908">
        <ele>15.109</ele>
        <time>2019-11-12T08:27:56.001Z</time>
      </trkpt>
      <trkpt lat="48.6442" lon="-1.38907">
        <ele>12.063</ele>
        <time>2019-11-12T08:28:29.001Z</time>
      </trkpt>
      <trkpt lat="48.64336" lon="-1.38816">
        <ele>17.377</ele>
        <time>2019-11-12T08:29:02Z</time>
      </trkpt>
      <trkpt lat="48.64227" lon="-1.38665">
        <ele>12.044</ele>
        <time>2019-11-12T08:29:32.001Z</time>
      </trkpt>
      <trkpt lat="48.64092" lon="-1.38499">
        <ele>7.155</ele>
        <time>2019-11-12T08:30:05.001Z</time>
      </trkpt>
      <trkpt lat="48.64012" lon="-1.3831">
        <ele>8.951</ele>
        <time>2019-11-12T08:30:38.001Z</time>
      </trkpt>
      <trkpt lat="48.63988" lon="-1.38108">
        <ele>12.917</ele>
        <time>2019-11-12T08:31:08.001Z</time>
      </trkpt>
      <trkpt lat="48.63939" lon="-1.37982">
        <ele>11.894</ele>
        <time>2019-11-12T08:31:41.001Z</time>
      </trkpt>
      <trkpt lat="48.63884" lon="-1.37858">
        <ele>14.369</ele>
        <time>2019-11-12T08:32:14.001Z</time>
      </trkpt>
      <trkpt lat="48.6381" lon="-1.3775">
        <ele>17.133</ele>
        <time>2019-11-12T08:32:44.001Z</time>
      </trkpt>
      <trkpt lat="48.63747" lon="-1.37622">
        <ele>18.44</ele>
        <time>2019-11-12T08:33:17.001Z</time>
      </trkpt>
      <trkpt lat="48.63732" lon="-1.3747">
        <ele>20.63</ele>
        <time>2019-11-12T08:33:50.001Z</time>
      </trkpt>
      <trkpt lat="48.63667" lon="-1.37362">
        <ele>20.385</ele>
        <time>2019-11-12T08:34:20.001Z</time>
      </trkpt>
      <trkpt lat="48.63588" lon="-1.3724">
        <ele>22.444</ele>
        <time>2019-11-12T08:34:53.001Z</time>
      </trkpt>
      <trkpt lat="48.63528" lon="-1.37122">
        <ele>25.793</ele>
        <time>2019-11-12T08:35:26.001Z</time>
      </trkpt>
      <trkpt lat="48.63462" lon="-1.37007">
        <ele>26.897</ele>
        <time>2019-11-12T08:35:56.001Z</time>
      </trkpt>
      <trkpt lat="48.63401" lon="-1.36884">
        <ele>27.864</ele>
        <time>2019-11-12T08:36:29.001Z</time>
      </trkpt>
      <trkpt lat="48.63358" lon="-1.36747">
        <ele>33.004</ele>
        <time>2019-11-12T08:37:02Z</time>
      </trkpt>
      <trkpt lat="48.63338" lon="-1.3663">
        <ele>35.68</ele>
        <time>2019-11-12T08:37:32.001Z</time>
      </trkpt>
      <trkpt lat="48.6328" lon="-1.36474">
        <ele>34.858</ele>
        <time>2019-11-12T08:38:05.001Z</time>
      </trkpt>
      <trkpt lat="48.63267" lon="-1.36355">
        <ele>37.713</ele>
        <time>2019-11-12T08:38:38.001Z</time>
      </trkpt>
      <trkpt lat="48.63255" lon="-1.36187">
        <ele>38.033</ele>
        <time>2019-11-12T08:39:08.001Z</time>
      </trkpt>
      <trkpt lat="48.63193" lon="-1.35857">
        <ele>29.775</ele>
        <time>2019-11-12T08:39:41.001Z</time>
      </trkpt>
      <trkpt lat="48.63187" lon="-1.35411">
        <ele>15.218</ele>
        <time>2019-11-12T08:40:11.001Z</time>
      </trkpt>
      <trkpt lat="48.63122" lon="-1.35179">
        <ele>5.247</ele>
        <time>2019-11-12T08:40:44.001Z</time>
      </trkpt>
      <trkpt lat="48.63123" lon="-1.3505">
        <ele>12.996</ele>
        <time>2019-11-12T08:41:23.001Z</time>
      </trkpt>
      <trkpt lat="48.63118" lon="-1.34932">
        <ele>9.419</ele>
        <time>2019-11-12T08:41:53.001Z</time>
      </trkpt>
      <trkpt lat="48.63128" lon="-1.34765">
        <ele>9.616</ele>
        <time>2019-11-12T08:42:26.001Z</time>
      </trkpt>
      <trkpt lat="48.63187" lon="-1.34586">
        <ele>9.017</ele>
        <time>2019-11-12T08:42:59.001Z</time>
      </trkpt>
      <trkpt lat="48.63275" lon="-1.34512">
        <ele>10.295</ele>
        <time>2019-11-12T08:43:29.001Z</time>
      </trkpt>
      <trkpt lat="48.63256" lon="-1.34414">
        <ele>17.517</ele>
        <time>2019-11-12T08:44:11.001Z</time>
      </trkpt>
      <trkpt lat="48.63221" lon="-1.34277">
        <ele>14.695</ele>
        <time>2019-11-12T08:44:44.001Z</time>
      </trkpt>
      <trkpt lat="48.63205" lon="-1.34132">
        <ele>16.938</ele>
        <time>2019-11-12T08:45:14.001Z</time>
      </trkpt>
      <trkpt lat="48.63216" lon="-1.3397">
        <ele>22.532</ele>
        <time>2019-11-12T08:45:47.001Z</time>
      </trkpt>
      <trkpt lat="48.63233" lon="-1.33807">
        <ele>23.094</ele>
        <time>2019-11-12T08:46:20.001Z</time>
      </trkpt>
      <trkpt lat="48.63245" lon="-1.33653">
        <ele>26.741</ele>
        <time>2019-11-12T08:46:50.001Z</time>
      </trkpt>
      <trkpt lat="48.63236" lon="-1.33471">
        <ele>19.727</ele>
        <time>2019-11-12T08:47:23.001Z</time>
      </trkpt>
      <trkpt lat="48.63202" lon="-1.33284">
        <ele>21.438</ele>
        <time>2019-11-12T08:47:59.001Z</time>
      </trkpt>
      <trkpt lat="48.63168" lon="-1.33133">
        <ele>20.678</ele>
        <time>2019-11-12T08:48:32.001Z</time>
      </trkpt>
      <trkpt lat="48.6313" lon="-1.32957">
        <ele>20.415</ele>
        <time>2019-11-12T08:49:05.001Z</time>
      </trkpt>
      <trkpt lat="48.6309" lon="-1.32764">
        <ele>21.995</ele>
        <time>2019-11-12T08:49:38.001Z</time>
      </trkpt>
      <trkpt lat="48.63049" lon="-1.32579">
        <ele>18.75</ele>
        <time>2019-11-12T08:50:08.001Z</time>
      </trkpt>
      <trkpt lat="48.6301" lon="-1.32391">
        <ele>22.352</ele>
        <time>2019-11-12T08:50:41.001Z</time>
      </trkpt>
      <trkpt lat="48.62974" lon="-1.32234">
        <ele>22.035</ele>
        <time>2019-11-12T08:51:17.001Z</time>
      </trkpt>
      <trkpt lat="48.6294" lon="-1.32066">
        <ele>19.109</ele>
        <time>2019-11-12T08:51:47.001Z</time>
      </trkpt>
      <trkpt lat="48.62902" lon="-1.3189">
        <ele>21.308</ele>
        <time>2019-11-12T08:52:20.001Z</time>
      </trkpt>
      <trkpt lat="48.62858" lon="-1.31687">
        <ele>20.935</ele>
        <time>2019-11-12T08:52:53.001Z</time>
      </trkpt>
      <trkpt lat="48.62811" lon="-1.31468">
        <ele>18.408</ele>
        <time>2019-11-12T08:53:23.001Z</time>
      </trkpt>
      <trkpt lat="48.62767" lon="-1.31247">
        <ele>20.474</ele>
        <time>2019-11-12T08:53:56.001Z</time>
      </trkpt>
      <trkpt lat="48.62719" lon="-1.31038">
        <ele>17.26</ele>
        <time>2019-11-12T08:54:32.001Z</time>
      </trkpt>
      <trkpt lat="48.62672" lon="-1.30826">
        <ele>16.075</ele>
        <time>2019-11-12T08:55:02Z</time>
      </trkpt>
      <trkpt lat="48.62621" lon="-1.30595">
        <ele>12.328</ele>
        <time>2019-11-12T08:55:35.001Z</time>
      </trkpt>
      <trkpt lat="48.62579" lon="-1.30391">
        <ele>11.198</ele>
        <time>2019-11-12T08:56:08.001Z</time>
      </trkpt>
      <trkpt lat="48.6254" lon="-1.3021">
        <ele>15.619</ele>
        <time>2019-11-12T08:56:38.001Z</time>
      </trkpt>
      <trkpt lat="48.62505" lon="-1.30044">
        <ele>18.484</ele>
        <time>2019-11-12T08:57:11.001Z</time>
      </trkpt>
      <trkpt lat="48.6247" lon="-1.29881">
        <ele>20.089</ele>
        <time>2019-11-12T08:57:44.001Z</time>
      </trkpt>
      <trkpt lat="48.62437" lon="-1.29732">
        <ele>23.955</ele>
        <time>2019-11-12T08:58:14.001Z</time>
      </trkpt>
      <trkpt lat="48.62395" lon="-1.29556">
        <ele>16.775</ele>
        <time>2019-11-12T08:58:47.001Z</time>
      </trkpt>
      <trkpt lat="48.62361" lon="-1.29373">
        <ele>18.164</ele>
        <time>2019-11-12T08:59:23.001Z</time>
      </trkpt>
      <trkpt lat="48.62341" lon="-1.29186">
        <ele>24.714</ele>
        <time>2019-11-12T08:59:53.001Z</time>
      </trkpt>
      <trkpt lat="48.62354" lon="-1.28969">
        <ele>26.218</ele>
        <time>2019-11-12T09:00:26.001Z</time>
      </trkpt>
      <trkpt lat="48.62385" lon="-1.28767">
        <ele>22.888</ele>
        <time>2019-11-12T09:00:56.001Z</time>
      </trkpt>
      <trkpt lat="48.62417" lon="-1.2853">
        <ele>19.464</ele>
        <time>2019-11-12T09:01:29.001Z</time>
      </trkpt>
      <trkpt lat="48.62469" lon="-1.28305">
        <ele>15.382</ele>
        <time>2019-11-12T09:02:02Z</time>
      </trkpt>
      <trkpt lat="48.62519" lon="-1.28186">
        <ele>20.283</ele>
        <time>2019-11-12T09:02:35.001Z</time>
      </trkpt>
      <trkpt lat="48.62613" lon="-1.28023">
        <ele>21.871</ele>
        <time>2019-11-12T09:03:08.001Z</time>
      </trkpt>
      <trkpt lat="48.62696" lon="-1.27886">
        <ele>19.298</ele>
        <time>2019-11-12T09:03:41.001Z</time>
      </trkpt>
      <trkpt lat="48.62763" lon="-1.27736">
        <ele>23.864</ele>
        <time>2019-11-12T09:04:11.001Z</time>
      </trkpt>
      <trkpt lat="48.62835" lon="-1.27538">
        <ele>16.502</ele>
        <time>2019-11-12T09:04:44.001Z</time>
      </trkpt>
      <trkpt lat="48.62879" lon="-1.27405">
        <ele>15.471</ele>
        <time>2019-11-12T09:05:20.001Z</time>
      </trkpt>
      <trkpt lat="48.62894" lon="-1.27354">
        <ele>18.526</ele>
        <time>2019-11-12T09:07:50.001Z</time>
      </trkpt>
      <trkpt lat="48.62954" lon="-1.27209">
        <ele>20.399</ele>
        <time>2019-11-12T09:08:23.001Z</time>
      </trkpt>
      <trkpt lat="48.63032" lon="-1.27065">
        <ele>26.643</ele>
        <time>2019-11-12T09:08:56.001Z</time>
      </trkpt>
      <trkpt lat="48.63109" lon="-1.26919">
        <ele>25.794</ele>
        <time>2019-11-12T09:09:26.001Z</time>
      </trkpt>
      <trkpt lat="48.63211" lon="-1.26782">
        <ele>23.612</ele>
        <time>2019-11-12T09:09:59.001Z</time>
      </trkpt>
      <trkpt lat="48.63341" lon="-1.26704">
        <ele>17.174</ele>
        <time>2019-11-12T09:10:32.001Z</time>
      </trkpt>
      <trkpt lat="48.63457" lon="-1.26654">
        <ele>16.332</ele>
        <time>2019-11-12T09:11:02Z</time>
      </trkpt>
      <trkpt lat="48.63586" lon="-1.26573">
        <ele>16.488</ele>
        <time>2019-11-12T09:11:35.001Z</time>
      </trkpt>
      <trkpt lat="48.63693" lon="-1.26474">
        <ele>19.966</ele>
        <time>2019-11-12T09:12:08.001Z</time>
      </trkpt>
      <trkpt lat="48.63807" lon="-1.26362">
        <ele>19.614</ele>
        <time>2019-11-12T09:12:38.001Z</time>
      </trkpt>
      <trkpt lat="48.63913" lon="-1.26259">
        <ele>19.106</ele>
        <time>2019-11-12T09:13:11.001Z</time>
      </trkpt>
      <trkpt lat="48.64015" lon="-1.26161">
        <ele>22.087</ele>
        <time>2019-11-12T09:13:44.001Z</time>
      </trkpt>
      <trkpt lat="48.64102" lon="-1.26081">
        <ele>23.686</ele>
        <time>2019-11-12T09:14:14.001Z</time>
      </trkpt>
      <trkpt lat="48.6419" lon="-1.25961">
        <ele>28.983</ele>
        <time>2019-11-12T09:14:47.001Z</time>
      </trkpt>
      <trkpt lat="48.6426" lon="-1.25785">
        <ele>32.288</ele>
        <time>2019-11-12T09:15:20.001Z</time>
      </trkpt>
      <trkpt lat="48.64301" lon="-1.25626">
        <ele>37.728</ele>
        <time>2019-11-12T09:15:50.001Z</time>
      </trkpt>
      <trkpt lat="48.6436" lon="-1.25397">
        <ele>33.977</ele>
        <time>2019-11-12T09:16:23.001Z</time>
      </trkpt>
      <trkpt lat="48.64418" lon="-1.2517">
        <ele>28.595</ele>
        <time>2019-11-12T09:16:56.001Z</time>
      </trkpt>
      <trkpt lat="48.64462" lon="-1.24987">
        <ele>25.879</ele>
        <time>2019-11-12T09:17:26.001Z</time>
      </trkpt>
      <trkpt lat="48.64502" lon="-1.24766">
        <ele>19.486</ele>
        <time>2019-11-12T09:17:59.001Z</time>
      </trkpt>
      <trkpt lat="48.64512" lon="-1.24739">
        <ele>22.44</ele>
        <time>2019-11-12T09:21:05.001Z</time>
      </trkpt>
      <trkpt lat="48.6451" lon="-1.24736">
        <ele>21.739</ele>
        <time>2019-11-12T09:25:02Z</time>
      </trkpt>
      <trkpt lat="48.6451" lon="-1.24736">
        <ele>21.739</ele>
        <time>2019-11-12T09:27:26.001Z</time>
      </trkpt>
      <trkpt lat="48.64509" lon="-1.24739">
        <ele>21.722</ele>
        <time>2019-11-12T09:32:47.001Z</time>
      </trkpt>
      <trkpt lat="48.64517" lon="-1.24701">
        <ele>23.637</ele>
        <time>2019-11-12T09:35:02Z</time>
      </trkpt>
      <trkpt lat="48.64531" lon="-1.24529">
        <ele>25.032</ele>
        <time>2019-11-12T09:35:35.001Z</time>
      </trkpt>
      <trkpt lat="48.64531" lon="-1.2437">
        <ele>25.694</ele>
        <time>2019-11-12T09:36:05.001Z</time>
      </trkpt>
      <trkpt lat="48.64514" lon="-1.24171">
        <ele>30.75</ele>
        <time>2019-11-12T09:36:38.001Z</time>
      </trkpt>
      <trkpt lat="48.64503" lon="-1.23984">
        <ele>29.231</ele>
        <time>2019-11-12T09:37:11.001Z</time>
      </trkpt>
      <trkpt lat="48.64489" lon="-1.23805">
        <ele>31.402</ele>
        <time>2019-11-12T09:37:41.001Z</time>
      </trkpt>
      <trkpt lat="48.64477" lon="-1.23615">
        <ele>27.101</ele>
        <time>2019-11-12T09:38:14.001Z</time>
      </trkpt>
      <trkpt lat="48.64466" lon="-1.23426">
        <ele>27.356</ele>
        <time>2019-11-12T09:38:47.001Z</time>
      </trkpt>
      <trkpt lat="48.64431" lon="-1.23266">
        <ele>27.175</ele>
        <time>2019-11-12T09:39:17.001Z</time>
      </trkpt>
      <trkpt lat="48.6436" lon="-1.23085">
        <ele>30.331</ele>
        <time>2019-11-12T09:39:50.001Z</time>
      </trkpt>
      <trkpt lat="48.64286" lon="-1.2295">
        <ele>30.388</ele>
        <time>2019-11-12T09:40:23.001Z</time>
      </trkpt>
      <trkpt lat="48.64216" lon="-1.22821">
        <ele>28.609</ele>
        <time>2019-11-12T09:40:53.001Z</time>
      </trkpt>
      <trkpt lat="48.64133" lon="-1.22672">
        <ele>33.286</ele>
        <time>2019-11-12T09:41:26.001Z</time>
      </trkpt>
      <trkpt lat="48.64084" lon="-1.22583">
        <ele>27.522</ele>
        <time>2019-11-12T09:44:08.001Z</time>
      </trkpt>
      <trkpt lat="48.64023" lon="-1.22469">
        <ele>23.722</ele>
        <time>2019-11-12T09:44:38.001Z</time>
      </trkpt>
      <trkpt lat="48.63949" lon="-1.223">
        <ele>29.157</ele>
        <time>2019-11-12T09:45:11.001Z</time>
      </trkpt>
      <trkpt lat="48.63899" lon="-1.22136">
        <ele>34.943</ele>
        <time>2019-11-12T09:45:44.001Z</time>
      </trkpt>
      <trkpt lat="48.6385" lon="-1.21977">
        <ele>37.989</ele>
        <time>2019-11-12T09:46:14.001Z</time>
      </trkpt>
      <trkpt lat="48.63781" lon="-1.2178">
        <ele>41.859</ele>
        <time>2019-11-12T09:46:47.001Z</time>
      </trkpt>
      <trkpt lat="48.63723" lon="-1.21591">
        <ele>38.905</ele>
        <time>2019-11-12T09:47:20.001Z</time>
      </trkpt>
      <trkpt lat="48.63684" lon="-1.21481">
        <ele>35.85</ele>
        <time>2019-11-12T09:47:50.001Z</time>
      </trkpt>
      <trkpt lat="48.63643" lon="-1.21347">
        <ele>40.562</ele>
        <time>2019-11-12T09:48:23.001Z</time>
      </trkpt>
      <trkpt lat="48.63614" lon="-1.21152">
        <ele>43.555</ele>
        <time>2019-11-12T09:48:56.001Z</time>
      </trkpt>
      <trkpt lat="48.63608" lon="-1.20988">
        <ele>38.927</ele>
        <time>2019-11-12T09:49:26.001Z</time>
      </trkpt>
      <trkpt lat="48.63612" lon="-1.2082">
        <ele>37.567</ele>
        <time>2019-11-12T09:49:59.001Z</time>
      </trkpt>
      <trkpt lat="48.63621" lon="-1.20687">
        <ele>42.047</ele>
        <time>2019-11-12T09:50:32.001Z</time>
      </trkpt>
      <trkpt lat="48.6364" lon="-1.20548">
        <ele>47.046</ele>
        <time>2019-11-12T09:51:02Z</time>
      </trkpt>
      <trkpt lat="48.6366" lon="-1.20366">
        <ele>47.324</ele>
        <time>2019-11-12T09:51:35.001Z</time>
      </trkpt>
      <trkpt lat="48.63671" lon="-1.20211">
        <ele>43.314</ele>
        <time>2019-11-12T09:52:11.001Z</time>
      </trkpt>
      <trkpt lat="48.63694" lon="-1.20057">
        <ele>48.452</ele>
        <time>2019-11-12T09:52:41.001Z</time>
      </trkpt>
      <trkpt lat="48.63714" lon="-1.19881">
        <ele>48.197</ele>
        <time>2019-11-12T09:53:14.001Z</time>
      </trkpt>
      <trkpt lat="48.63732" lon="-1.19711">
        <ele>50.001</ele>
        <time>2019-11-12T09:53:47.001Z</time>
      </trkpt>
      <trkpt lat="48.63736" lon="-1.19562">
        <ele>52.972</ele>
        <time>2019-11-12T09:54:17.001Z</time>
      </trkpt>
      <trkpt lat="48.63724" lon="-1.19395">
        <ele>56.865</ele>
        <time>2019-11-12T09:54:50.001Z</time>
      </trkpt>
      <trkpt lat="48.63711" lon="-1.19259">
        <ele>50.743</ele>
        <time>2019-11-12T09:55:23.001Z</time>
      </trkpt>
      <trkpt lat="48.63694" lon="-1.19171">
        <ele>53.73</ele>
        <time>2019-11-12T09:55:56.001Z</time>
      </trkpt>
      <trkpt lat="48.63668" lon="-1.19031">
        <ele>56.295</ele>
        <time>2019-11-12T09:56:29.001Z</time>
      </trkpt>
      <trkpt lat="48.63637" lon="-1.18893">
        <ele>55.666</ele>
        <time>2019-11-12T09:56:59.001Z</time>
      </trkpt>
      <trkpt lat="48.63593" lon="-1.1875">
        <ele>56.079</ele>
        <time>2019-11-12T09:57:32.001Z</time>
      </trkpt>
      <trkpt lat="48.63537" lon="-1.18624">
        <ele>50.596</ele>
        <time>2019-11-12T09:58:05.001Z</time>
      </trkpt>
      <trkpt lat="48.63487" lon="-1.18517">
        <ele>54.742</ele>
        <time>2019-11-12T09:58:35.001Z</time>
      </trkpt>
      <trkpt lat="48.63416" lon="-1.18402">
        <ele>61.778</ele>
        <time>2019-11-12T09:59:08.001Z</time>
      </trkpt>
      <trkpt lat="48.63343" lon="-1.18282">
        <ele>63.715</ele>
        <time>2019-11-12T09:59:41.001Z</time>
      </trkpt>
      <trkpt lat="48.63274" lon="-1.18177">
        <ele>66.856</ele>
        <time>2019-11-12T10:00:11.001Z</time>
      </trkpt>
      <trkpt lat="48.63199" lon="-1.18062">
        <ele>66.484</ele>
        <time>2019-11-12T10:00:44.001Z</time>
      </trkpt>
      <trkpt lat="48.63121" lon="-1.17964">
        <ele>68.997</ele>
        <time>2019-11-12T10:01:17.001Z</time>
      </trkpt>
      <trkpt lat="48.63048" lon="-1.17888">
        <ele>69.661</ele>
        <time>2019-11-12T10:01:47.001Z</time>
      </trkpt>
      <trkpt lat="48.62967" lon="-1.17826">
        <ele>73.149</ele>
        <time>2019-11-12T10:02:20.001Z</time>
      </trkpt>
      <trkpt lat="48.62873" lon="-1.17765">
        <ele>77.046</ele>
        <time>2019-11-12T10:02:53.001Z</time>
      </trkpt>
      <trkpt lat="48.6278" lon="-1.17708">
        <ele>76.97</ele>
        <time>2019-11-12T10:03:23.001Z</time>
      </trkpt>
      <trkpt lat="48.62689" lon="-1.17654">
        <ele>79.054</ele>
        <time>2019-11-12T10:03:56.001Z</time>
      </trkpt>
      <trkpt lat="48.62603" lon="-1.17603">
        <ele>83.086</ele>
        <time>2019-11-12T10:04:29.001Z</time>
      </trkpt>
      <trkpt lat="48.62518" lon="-1.1755">
        <ele>84.29</ele>
        <time>2019-11-12T10:04:59.001Z</time>
      </trkpt>
      <trkpt lat="48.62426" lon="-1.17478">
        <ele>82.188</ele>
        <time>2019-11-12T10:05:32.001Z</time>
      </trkpt>
      <trkpt lat="48.62347" lon="-1.17386">
        <ele>83.436</ele>
        <time>2019-11-12T10:06:05.001Z</time>
      </trkpt>
      <trkpt lat="48.62274" lon="-1.17274">
        <ele>80.798</ele>
        <time>2019-11-12T10:06:35.001Z</time>
      </trkpt>
      <trkpt lat="48.62215" lon="-1.17156">
        <ele>80.886</ele>
        <time>2019-11-12T10:07:08.001Z</time>
      </trkpt>
      <trkpt lat="48.62166" lon="-1.17028">
        <ele>87.961</ele>
        <time>2019-11-12T10:07:41.001Z</time>
      </trkpt>
      <trkpt lat="48.62134" lon="-1.16897">
        <ele>88.95</ele>
        <time>2019-11-12T10:08:11.001Z</time>
      </trkpt>
      <trkpt lat="48.62107" lon="-1.16747">
        <ele>91.95</ele>
        <time>2019-11-12T10:08:44.001Z</time>
      </trkpt>
      <trkpt lat="48.62084" lon="-1.16578">
        <ele>95.264</ele>
        <time>2019-11-12T10:09:17.001Z</time>
      </trkpt>
      <trkpt lat="48.62062" lon="-1.16445">
        <ele>99.922</ele>
        <time>2019-11-12T10:09:47.001Z</time>
      </trkpt>
      <trkpt lat="48.62046" lon="-1.16294">
        <ele>99.894</ele>
        <time>2019-11-12T10:10:20.001Z</time>
      </trkpt>
      <trkpt lat="48.62028" lon="-1.16149">
        <ele>100.136</ele>
        <time>2019-11-12T10:10:53.001Z</time>
      </trkpt>
      <trkpt lat="48.62008" lon="-1.16021">
        <ele>97.614</ele>
        <time>2019-11-12T10:11:23.001Z</time>
      </trkpt>
      <trkpt lat="48.61979" lon="-1.15872">
        <ele>99.753</ele>
        <time>2019-11-12T10:11:56.001Z</time>
      </trkpt>
      <trkpt lat="48.61939" lon="-1.15721">
        <ele>100.006</ele>
        <time>2019-11-12T10:12:29.001Z</time>
      </trkpt>
      <trkpt lat="48.61895" lon="-1.15609">
        <ele>107.97</ele>
        <time>2019-11-12T10:12:59.001Z</time>
      </trkpt>
      <trkpt lat="48.61838" lon="-1.15486">
        <ele>117.888</ele>
        <time>2019-11-12T10:13:32.001Z</time>
      </trkpt>
      <trkpt lat="48.61771" lon="-1.15374">
        <ele>119.14</ele>
        <time>2019-11-12T10:14:05.001Z</time>
      </trkpt>
      <trkpt lat="48.61708" lon="-1.15287">
        <ele>122.5</ele>
        <time>2019-11-12T10:14:35.001Z</time>
      </trkpt>
      <trkpt lat="48.61639" lon="-1.15197">
        <ele>128.237</ele>
        <time>2019-11-12T10:15:08.001Z</time>
      </trkpt>
      <trkpt lat="48.61563" lon="-1.15095">
        <ele>123.878</ele>
        <time>2019-11-12T10:15:38.001Z</time>
      </trkpt>
      <trkpt lat="48.61487" lon="-1.14993">
        <ele>117.092</ele>
        <time>2019-11-12T10:16:11.001Z</time>
      </trkpt>
      <trkpt lat="48.61394" lon="-1.14917">
        <ele>114.945</ele>
        <time>2019-11-12T10:16:44.001Z</time>
      </trkpt>
      <trkpt lat="48.61323" lon="-1.14793">
        <ele>116.32</ele>
        <time>2019-11-12T10:17:14.001Z</time>
      </trkpt>
      <trkpt lat="48.61216" lon="-1.14644">
        <ele>119.738</ele>
        <time>2019-11-12T10:17:47.001Z</time>
      </trkpt>
      <trkpt lat="48.61127" lon="-1.14527">
        <ele>118.67</ele>
        <time>2019-11-12T10:18:20.001Z</time>
      </trkpt>
      <trkpt lat="48.61021" lon="-1.14387">
        <ele>114.756</ele>
        <time>2019-11-12T10:18:50.001Z</time>
      </trkpt>
      <trkpt lat="48.60954" lon="-1.14261">
        <ele>113.384</ele>
        <time>2019-11-12T10:19:23.001Z</time>
      </trkpt>
      <trkpt lat="48.60874" lon="-1.14097">
        <ele>107.508</ele>
        <time>2019-11-12T10:19:56.001Z</time>
      </trkpt>
      <trkpt lat="48.6081" lon="-1.13887">
        <ele>107.993</ele>
        <time>2019-11-12T10:20:26.001Z</time>
      </trkpt>
      <trkpt lat="48.6075" lon="-1.13667">
        <ele>106.348</ele>
        <time>2019-11-12T10:20:59.001Z</time>
      </trkpt>
      <trkpt lat="48.60682" lon="-1.13441">
        <ele>106.573</ele>
        <time>2019-11-12T10:21:32.001Z</time>
      </trkpt>
      <trkpt lat="48.60643" lon="-1.13279">
        <ele>105.958</ele>
        <time>2019-11-12T10:22:05.001Z</time>
      </trkpt>
      <trkpt lat="48.60581" lon="-1.13107">
        <ele>107.195</ele>
        <time>2019-11-12T10:22:38.001Z</time>
      </trkpt>
      <trkpt lat="48.6051" lon="-1.1295">
        <ele>109.362</ele>
        <time>2019-11-12T10:23:11.001Z</time>
      </trkpt>
      <trkpt lat="48.60441" lon="-1.12838">
        <ele>115.761</ele>
        <time>2019-11-12T10:23:41.001Z</time>
      </trkpt>
      <trkpt lat="48.60369" lon="-1.12742">
        <ele>120.652</ele>
        <time>2019-11-12T10:24:14.001Z</time>
      </trkpt>
      <trkpt lat="48.60335" lon="-1.127">
        <ele>118.184</ele>
        <time>2019-11-12T10:29:02Z</time>
      </trkpt>
      <trkpt lat="48.60336" lon="-1.12705">
        <ele>119.979</ele>
        <time>2019-11-12T10:30:44.001Z</time>
      </trkpt>
      <trkpt lat="48.60339" lon="-1.12705">
        <ele>118.537</ele>
        <time>2019-11-12T10:32:20.001Z</time>
      </trkpt>
      <trkpt lat="48.60338" lon="-1.12698">
        <ele>116.547</ele>
        <time>2019-11-12T10:33:44.001Z</time>
      </trkpt>
      <trkpt lat="48.60343" lon="-1.12711">
        <ele>112.842</ele>
        <time>2019-11-12T10:35:02Z</time>
      </trkpt>
      <trkpt lat="48.60344" lon="-1.12708">
        <ele>108.955</ele>
        <time>2019-11-12T10:37:08.001Z</time>
      </trkpt>
      <trkpt lat="48.60283" lon="-1.12648">
        <ele>113.605</ele>
        <time>2019-11-12T10:38:02Z</time>
      </trkpt>
      <trkpt lat="48.60212" lon="-1.12577">
        <ele>115.09</ele>
        <time>2019-11-12T10:38:32.001Z</time>
      </trkpt>
      <trkpt lat="48.60134" lon="-1.12496">
        <ele>118.094</ele>
        <time>2019-11-12T10:39:05.001Z</time>
      </trkpt>
      <trkpt lat="48.60052" lon="-1.1241">
        <ele>121.549</ele>
        <time>2019-11-12T10:39:38.001Z</time>
      </trkpt>
      <trkpt lat="48.59966" lon="-1.12321">
        <ele>111.465</ele>
        <time>2019-11-12T10:40:08.001Z</time>
      </trkpt>
      <trkpt lat="48.59849" lon="-1.12203">
        <ele>109.376</ele>
        <time>2019-11-12T10:40:41.001Z</time>
      </trkpt>
      <trkpt lat="48.59721" lon="-1.12067">
        <ele>108.997</ele>
        <time>2019-11-12T10:41:14.001Z</time>
      </trkpt>
      <trkpt lat="48.59578" lon="-1.11924">
        <ele>115.693</ele>
        <time>2019-11-12T10:41:44.001Z</time>
      </trkpt>
      <trkpt lat="48.5943" lon="-1.11768">
        <ele>105.912</ele>
        <time>2019-11-12T10:42:17.001Z</time>
      </trkpt>
      <trkpt lat="48.59295" lon="-1.11629">
        <ele>99.528</ele>
        <time>2019-11-12T10:42:50.001Z</time>
      </trkpt>
      <trkpt lat="48.59171" lon="-1.115">
        <ele>98.202</ele>
        <time>2019-11-12T10:43:20.001Z</time>
      </trkpt>
      <trkpt lat="48.5902" lon="-1.11345">
        <ele>100.341</ele>
        <time>2019-11-12T10:43:53.001Z</time>
      </trkpt>
      <trkpt lat="48.5885" lon="-1.11168">
        <ele>94.487</ele>
        <time>2019-11-12T10:44:26.001Z</time>
      </trkpt>
      <trkpt lat="48.58746" lon="-1.11057">
        <ele>92.197</ele>
        <time>2019-11-12T10:44:56.001Z</time>
      </trkpt>
      <trkpt lat="48.58664" lon="-1.10929">
        <ele>95.378</ele>
        <time>2019-11-12T10:45:29.001Z</time>
      </trkpt>
      <trkpt lat="48.58597" lon="-1.1074">
        <ele>95.814</ele>
        <time>2019-11-12T10:45:59.001Z</time>
      </trkpt>
      <trkpt lat="48.58575" lon="-1.1046">
        <ele>92.053</ele>
        <time>2019-11-12T10:46:32.001Z</time>
      </trkpt>
      <trkpt lat="48.58589" lon="-1.10155">
        <ele>85.421</ele>
        <time>2019-11-12T10:47:05.001Z</time>
      </trkpt>
      <trkpt lat="48.58594" lon="-1.09987">
        <ele>84.536</ele>
        <time>2019-11-12T10:47:35.001Z</time>
      </trkpt>
      <trkpt lat="48.58598" lon="-1.09921">
        <ele>81.716</ele>
        <time>2019-11-12T10:55:26.001Z</time>
      </trkpt>
      <trkpt lat="48.58601" lon="-1.09699">
        <ele>85.403</ele>
        <time>2019-11-12T10:55:59.001Z</time>
      </trkpt>
      <trkpt lat="48.58612" lon="-1.09447">
        <ele>79.437</ele>
        <time>2019-11-12T10:56:29.001Z</time>
      </trkpt>
      <trkpt lat="48.58618" lon="-1.09165">
        <ele>74.316</ele>
        <time>2019-11-12T10:57:02Z</time>
      </trkpt>
      <trkpt lat="48.58609" lon="-1.09006">
        <ele>74.976</ele>
        <time>2019-11-12T10:57:35.001Z</time>
      </trkpt>
      <trkpt lat="48.58597" lon="-1.08946">
        <ele>78.015</ele>
        <time>2019-11-12T11:02:41.001Z</time>
      </trkpt>
      <trkpt lat="48.58567" lon="-1.08741">
        <ele>79.988</ele>
        <time>2019-11-12T11:03:14.001Z</time>
      </trkpt>
      <trkpt lat="48.58556" lon="-1.08551">
        <ele>87.324</ele>
        <time>2019-11-12T11:03:47.001Z</time>
      </trkpt>
      <trkpt lat="48.58521" lon="-1.08401">
        <ele>77.028</ele>
        <time>2019-11-12T11:04:17.001Z</time>
      </trkpt>
      <trkpt lat="48.58525" lon="-1.0821">
        <ele>76.191</ele>
        <time>2019-11-12T11:04:50.001Z</time>
      </trkpt>
      <trkpt lat="48.58555" lon="-1.08036">
        <ele>75.329</ele>
        <time>2019-11-12T11:05:23.001Z</time>
      </trkpt>
      <trkpt lat="48.58612" lon="-1.07888">
        <ele>74.585</ele>
        <time>2019-11-12T11:05:53.001Z</time>
      </trkpt>
      <trkpt lat="48.5869" lon="-1.0775">
        <ele>83.525</ele>
        <time>2019-11-12T11:06:26.001Z</time>
      </trkpt>
      <trkpt lat="48.58755" lon="-1.07631">
        <ele>85.481</ele>
        <time>2019-11-12T11:06:59.001Z</time>
      </trkpt>
      <trkpt lat="48.58821" lon="-1.07508">
        <ele>81.701</ele>
        <time>2019-11-12T11:07:29.001Z</time>
      </trkpt>
      <trkpt lat="48.58881" lon="-1.07388">
        <ele>86.16</ele>
        <time>2019-11-12T11:08:02Z</time>
      </trkpt>
      <trkpt lat="48.58954" lon="-1.07262">
        <ele>97.583</ele>
        <time>2019-11-12T11:08:35.001Z</time>
      </trkpt>
      <trkpt lat="48.59018" lon="-1.07143">
        <ele>106.197</ele>
        <time>2019-11-12T11:09:05.001Z</time>
      </trkpt>
      <trkpt lat="48.59084" lon="-1.07014">
        <ele>105.762</ele>
        <time>2019-11-12T11:09:38.001Z</time>
      </trkpt>
      <trkpt lat="48.59154" lon="-1.06888">
        <ele>104.252</ele>
        <time>2019-11-12T11:10:11.001Z</time>
      </trkpt>
      <trkpt lat="48.59203" lon="-1.06774">
        <ele>92.275</ele>
        <time>2019-11-12T11:10:41.001Z</time>
      </trkpt>
      <trkpt lat="48.59263" lon="-1.06656">
        <ele>92.845</ele>
        <time>2019-11-12T11:11:14.001Z</time>
      </trkpt>
      <trkpt lat="48.5933" lon="-1.06531">
        <ele>95.04</ele>
        <time>2019-11-12T11:11:47.001Z</time>
      </trkpt>
      <trkpt lat="48.59406" lon="-1.06395">
        <ele>97.43</ele>
        <time>2019-11-12T11:12:17.001Z</time>
      </trkpt>
      <trkpt lat="48.595" lon="-1.06212">
        <ele>102.321</ele>
        <time>2019-11-12T11:12:50.001Z</time>
      </trkpt>
      <trkpt lat="48.59621" lon="-1.05987">
        <ele>92.304</ele>
        <time>2019-11-12T11:13:23.001Z</time>
      </trkpt>
      <trkpt lat="48.59699" lon="-1.0583">
        <ele>90.607</ele>
        <time>2019-11-12T11:13:53.001Z</time>
      </trkpt>
      <trkpt lat="48.59774" lon="-1.05688">
        <ele>93.294</ele>
        <time>2019-11-12T11:14:26.001Z</time>
      </trkpt>
      <trkpt lat="48.59831" lon="-1.05578">
        <ele>95.801</ele>
        <time>2019-11-12T11:14:59.001Z</time>
      </trkpt>
      <trkpt lat="48.59899" lon="-1.05449">
        <ele>101.06</ele>
        <time>2019-11-12T11:15:29.001Z</time>
      </trkpt>
      <trkpt lat="48.59988" lon="-1.05283">
        <ele>109.804</ele>
        <time>2019-11-12T11:16:02Z</time>
      </trkpt>
      <trkpt lat="48.60087" lon="-1.05099">
        <ele>97.963</ele>
        <time>2019-11-12T11:16:32.001Z</time>
      </trkpt>
      <trkpt lat="48.60203" lon="-1.04871">
        <ele>92.801</ele>
        <time>2019-11-12T11:17:05.001Z</time>
      </trkpt>
      <trkpt lat="48.60285" lon="-1.04715">
        <ele>90.55</ele>
        <time>2019-11-12T11:17:38.001Z</time>
      </trkpt>
      <trkpt lat="48.60354" lon="-1.04579">
        <ele>89.256</ele>
        <time>2019-11-12T11:18:08.001Z</time>
      </trkpt>
      <trkpt lat="48.60422" lon="-1.0439">
        <ele>92.432</ele>
        <time>2019-11-12T11:18:41.001Z</time>
      </trkpt>
      <trkpt lat="48.60474" lon="-1.04192">
        <ele>92.198</ele>
        <time>2019-11-12T11:19:14.001Z</time>
      </trkpt>
      <trkpt lat="48.60494" lon="-1.04039">
        <ele>97.481</ele>
        <time>2019-11-12T11:19:44.001Z</time>
      </trkpt>
      <trkpt lat="48.60513" lon="-1.03854">
        <ele>100.069</ele>
        <time>2019-11-12T11:20:17.001Z</time>
      </trkpt>
      <trkpt lat="48.6054" lon="-1.03698">
        <ele>108.075</ele>
        <time>2019-11-12T11:20:50.001Z</time>
      </trkpt>
      <trkpt lat="48.60572" lon="-1.03553">
        <ele>112.405</ele>
        <time>2019-11-12T11:21:20.001Z</time>
      </trkpt>
      <trkpt lat="48.60624" lon="-1.03407">
        <ele>108.966</ele>
        <time>2019-11-12T11:21:53.001Z</time>
      </trkpt>
      <trkpt lat="48.60681" lon="-1.03268">
        <ele>111.884</ele>
        <time>2019-11-12T11:22:26.001Z</time>
      </trkpt>
      <trkpt lat="48.60735" lon="-1.03146">
        <ele>114.453</ele>
        <time>2019-11-12T11:22:56.001Z</time>
      </trkpt>
      <trkpt lat="48.60795" lon="-1.02998">
        <ele>117.455</ele>
        <time>2019-11-12T11:23:29.001Z</time>
      </trkpt>
      <trkpt lat="48.60862" lon="-1.02852">
        <ele>125.715</ele>
        <time>2019-11-12T11:24:02Z</time>
      </trkpt>
      <trkpt lat="48.60931" lon="-1.02692">
        <ele>127.12</ele>
        <time>2019-11-12T11:24:32.001Z</time>
      </trkpt>
      <trkpt lat="48.61018" lon="-1.02462">
        <ele>115.079</ele>
        <time>2019-11-12T11:25:05.001Z</time>
      </trkpt>
      <trkpt lat="48.6112" lon="-1.0222">
        <ele>102.824</ele>
        <time>2019-11-12T11:25:38.001Z</time>
      </trkpt>
      <trkpt lat="48.61187" lon="-1.0198">
        <ele>99.847</ele>
        <time>2019-11-12T11:26:08.001Z</time>
      </trkpt>
      <trkpt lat="48.61216" lon="-1.0182">
        <ele>102.999</ele>
        <time>2019-11-12T11:26:44.001Z</time>
      </trkpt>
      <trkpt lat="48.6122" lon="-1.01655">
        <ele>108.401</ele>
        <time>2019-11-12T11:27:17.001Z</time>
      </trkpt>
      <trkpt lat="48.61229" lon="-1.0145">
        <ele>104.805</ele>
        <time>2019-11-12T11:27:47.001Z</time>
      </trkpt>
      <trkpt lat="48.61281" lon="-1.01159">
        <ele>109.091</ele>
        <time>2019-11-12T11:28:20.001Z</time>
      </trkpt>
      <trkpt lat="48.61372" lon="-1.00892">
        <ele>94.456</ele>
        <time>2019-11-12T11:28:53.001Z</time>
      </trkpt>
      <trkpt lat="48.61502" lon="-1.00694">
        <ele>91.593</ele>
        <time>2019-11-12T11:29:23.001Z</time>
      </trkpt>
      <trkpt lat="48.61631" lon="-1.00507">
        <ele>92.011</ele>
        <time>2019-11-12T11:29:56.001Z</time>
      </trkpt>
      <trkpt lat="48.61727" lon="-1.00365">
        <ele>90.941</ele>
        <time>2019-11-12T11:30:32.001Z</time>
      </trkpt>
      <trkpt lat="48.61801" lon="-1.00254">
        <ele>93.33</ele>
        <time>2019-11-12T11:31:02Z</time>
      </trkpt>
      <trkpt lat="48.61885" lon="-1.00085">
        <ele>95.172</ele>
        <time>2019-11-12T11:31:35.001Z</time>
      </trkpt>
      <trkpt lat="48.61928" lon="-0.99911">
        <ele>92.496</ele>
        <time>2019-11-12T11:32:08.001Z</time>
      </trkpt>
      <trkpt lat="48.61958" lon="-0.99757">
        <ele>95.114</ele>
        <time>2019-11-12T11:32:38.001Z</time>
      </trkpt>
      <trkpt lat="48.6198" lon="-0.99604">
        <ele>104.108</ele>
        <time>2019-11-12T11:33:11.001Z</time>
      </trkpt>
      <trkpt lat="48.62006" lon="-0.99442">
        <ele>107.597</ele>
        <time>2019-11-12T11:33:44.001Z</time>
      </trkpt>
      <trkpt lat="48.62017" lon="-0.99368">
        <ele>113.607</ele>
        <time>2019-11-12T11:37:14.001Z</time>
      </trkpt>
      <trkpt lat="48.62032" lon="-0.99225">
        <ele>103.547</ele>
        <time>2019-11-12T11:37:47.001Z</time>
      </trkpt>
      <trkpt lat="48.62051" lon="-0.99091">
        <ele>97.635</ele>
        <time>2019-11-12T11:38:17.001Z</time>
      </trkpt>
      <trkpt lat="48.62075" lon="-0.98926">
        <ele>99.736</ele>
        <time>2019-11-12T11:38:50.001Z</time>
      </trkpt>
      <trkpt lat="48.62098" lon="-0.98766">
        <ele>100.359</ele>
        <time>2019-11-12T11:39:23.001Z</time>
      </trkpt>
      <trkpt lat="48.62118" lon="-0.98626">
        <ele>104.284</ele>
        <time>2019-11-12T11:39:56.001Z</time>
      </trkpt>
      <trkpt lat="48.62136" lon="-0.98497">
        <ele>105.249</ele>
        <time>2019-11-12T11:40:29.001Z</time>
      </trkpt>
      <trkpt lat="48.62157" lon="-0.98352">
        <ele>108.803</ele>
        <time>2019-11-12T11:41:02Z</time>
      </trkpt>
      <trkpt lat="48.62183" lon="-0.98222">
        <ele>110.929</ele>
        <time>2019-11-12T11:41:32.001Z</time>
      </trkpt>
      <trkpt lat="48.62224" lon="-0.98077">
        <ele>109.354</ele>
        <time>2019-11-12T11:42:05.001Z</time>
      </trkpt>
      <trkpt lat="48.62281" lon="-0.97935">
        <ele>108.737</ele>
        <time>2019-11-12T11:42:38.001Z</time>
      </trkpt>
      <trkpt lat="48.62333" lon="-0.97806">
        <ele>109.893</ele>
        <time>2019-11-12T11:43:08.001Z</time>
      </trkpt>
      <trkpt lat="48.62386" lon="-0.97678">
        <ele>114.378</ele>
        <time>2019-11-12T11:43:41.001Z</time>
      </trkpt>
      <trkpt lat="48.62437" lon="-0.97552">
        <ele>122.492</ele>
        <time>2019-11-12T11:44:14.001Z</time>
      </trkpt>
      <trkpt lat="48.62472" lon="-0.97426">
        <ele>121.575</ele>
        <time>2019-11-12T11:44:44.001Z</time>
      </trkpt>
      <trkpt lat="48.62501" lon="-0.97281">
        <ele>123.501</ele>
        <time>2019-11-12T11:45:17.001Z</time>
      </trkpt>
      <trkpt lat="48.62527" lon="-0.97122">
        <ele>124.77</ele>
        <time>2019-11-12T11:45:50.001Z</time>
      </trkpt>
      <trkpt lat="48.62535" lon="-0.96986">
        <ele>125.041</ele>
        <time>2019-11-12T11:46:20.001Z</time>
      </trkpt>
      <trkpt lat="48.6255" lon="-0.96834">
        <ele>129.245</ele>
        <time>2019-11-12T11:46:53.001Z</time>
      </trkpt>
      <trkpt lat="48.62569" lon="-0.96664">
        <ele>128.898</ele>
        <time>2019-11-12T11:47:26.001Z</time>
      </trkpt>
      <trkpt lat="48.62581" lon="-0.96508">
        <ele>129.524</ele>
        <time>2019-11-12T11:47:56.001Z</time>
      </trkpt>
      <trkpt lat="48.62602" lon="-0.96301">
        <ele>129.187</ele>
        <time>2019-11-12T11:48:29.001Z</time>
      </trkpt>
      <trkpt lat="48.62624" lon="-0.96093">
        <ele>128.394</ele>
        <time>2019-11-12T11:49:02Z</time>
      </trkpt>
      <trkpt lat="48.62662" lon="-0.96034">
        <ele>129.449</ele>
        <time>2019-11-12T11:49:32.001Z</time>
      </trkpt>
      <trkpt lat="48.62753" lon="-0.96043">
        <ele>130.454</ele>
        <time>2019-11-12T11:50:05.001Z</time>
      </trkpt>
      <trkpt lat="48.62844" lon="-0.95976">
        <ele>134.949</ele>
        <time>2019-11-12T11:50:38.001Z</time>
      </trkpt>
      <trkpt lat="48.62929" lon="-0.95948">
        <ele>136.746</ele>
        <time>2019-11-12T11:51:08.001Z</time>
      </trkpt>
      <trkpt lat="48.63026" lon="-0.95952">
        <ele>135.513</ele>
        <time>2019-11-12T11:51:41.001Z</time>
      </trkpt>
      <trkpt lat="48.63112" lon="-0.95993">
        <ele>141.158</ele>
        <time>2019-11-12T11:52:14.001Z</time>
      </trkpt>
      <trkpt lat="48.63188" lon="-0.96047">
        <ele>142.946</ele>
        <time>2019-11-12T11:52:44.001Z</time>
      </trkpt>
      <trkpt lat="48.6327" lon="-0.96107">
        <ele>146.926</ele>
        <time>2019-11-12T11:53:17.001Z</time>
      </trkpt>
      <trkpt lat="48.63348" lon="-0.96181">
        <ele>146.259</ele>
        <time>2019-11-12T11:53:50.001Z</time>
      </trkpt>
      <trkpt lat="48.63378" lon="-0.96254">
        <ele>151.172</ele>
        <time>2019-11-12T11:54:20.001Z</time>
      </trkpt>
      <trkpt lat="48.63336" lon="-0.96371">
        <ele>151.223</ele>
        <time>2019-11-12T11:54:53.001Z</time>
      </trkpt>
      <trkpt lat="48.6341" lon="-0.96375">
        <ele>151.009</ele>
        <time>2019-11-12T11:55:26.001Z</time>
      </trkpt>
      <trkpt lat="48.63483" lon="-0.96321">
        <ele>150.903</ele>
        <time>2019-11-12T11:55:56.001Z</time>
      </trkpt>
      <trkpt lat="48.63579" lon="-0.96293">
        <ele>152.388</ele>
        <time>2019-11-12T11:56:29.001Z</time>
      </trkpt>
      <trkpt lat="48.63667" lon="-0.96285">
        <ele>155.908</ele>
        <time>2019-11-12T11:56:59.001Z</time>
      </trkpt>
      <trkpt lat="48.63764" lon="-0.96274">
        <ele>155.737</ele>
        <time>2019-11-12T11:57:32.001Z</time>
      </trkpt>
      <trkpt lat="48.6383" lon="-0.96227">
        <ele>161.922</ele>
        <time>2019-11-12T11:58:05.001Z</time>
      </trkpt>
      <trkpt lat="48.63852" lon="-0.96089">
        <ele>163.357</ele>
        <time>2019-11-12T11:58:35.001Z</time>
      </trkpt>
      <trkpt lat="48.63938" lon="-0.96007">
        <ele>164.63</ele>
        <time>2019-11-12T11:59:08.001Z</time>
      </trkpt>
      <trkpt lat="48.64005" lon="-0.95911">
        <ele>167.805</ele>
        <time>2019-11-12T11:59:41.001Z</time>
      </trkpt>
      <trkpt lat="48.64061" lon="-0.95816">
        <ele>168.916</ele>
        <time>2019-11-12T12:00:11.001Z</time>
      </trkpt>
      <trkpt lat="48.64121" lon="-0.95706">
        <ele>174.093</ele>
        <time>2019-11-12T12:00:44.001Z</time>
      </trkpt>
      <trkpt lat="48.64177" lon="-0.95601">
        <ele>177.47</ele>
        <time>2019-11-12T12:01:17.001Z</time>
      </trkpt>
      <trkpt lat="48.64237" lon="-0.9553">
        <ele>178.612</ele>
        <time>2019-11-12T12:01:47.001Z</time>
      </trkpt>
      <trkpt lat="48.64304" lon="-0.9545">
        <ele>178.82</ele>
        <time>2019-11-12T12:02:20.001Z</time>
      </trkpt>
      <trkpt lat="48.64358" lon="-0.95408">
        <ele>178.734</ele>
        <time>2019-11-12T12:09:38.001Z</time>
      </trkpt>
      <trkpt lat="48.64393" lon="-0.95368">
        <ele>181.208</ele>
        <time>2019-11-12T12:10:32.001Z</time>
      </trkpt>
      <trkpt lat="48.64451" lon="-0.95299">
        <ele>186.165</ele>
        <time>2019-11-12T12:11:11.001Z</time>
      </trkpt>
      <trkpt lat="48.64507" lon="-0.95224">
        <ele>186.052</ele>
        <time>2019-11-12T12:12:20.001Z</time>
      </trkpt>
      <trkpt lat="48.64574" lon="-0.9515">
        <ele>190.165</ele>
        <time>2019-11-12T12:12:50.001Z</time>
      </trkpt>
      <trkpt lat="48.64654" lon="-0.95066">
        <ele>198.43</ele>
        <time>2019-11-12T12:13:23.001Z</time>
      </trkpt>
      <trkpt lat="48.6473" lon="-0.94997">
        <ele>211.278</ele>
        <time>2019-11-12T12:13:56.001Z</time>
      </trkpt>
      <trkpt lat="48.64806" lon="-0.94993">
        <ele>208.973</ele>
        <time>2019-11-12T12:14:26.001Z</time>
      </trkpt>
      <trkpt lat="48.64879" lon="-0.94988">
        <ele>207.719</ele>
        <time>2019-11-12T12:15:02Z</time>
      </trkpt>
      <trkpt lat="48.64881" lon="-0.94986">
        <ele>207.782</ele>
        <time>2019-11-12T12:18:56.001Z</time>
      </trkpt>
      <trkpt lat="48.64808" lon="-0.94996">
        <ele>203.359</ele>
        <time>2019-11-12T12:19:32.001Z</time>
      </trkpt>
      <trkpt lat="48.64782" lon="-0.94985">
        <ele>204.152</ele>
        <time>2019-11-12T12:21:26.001Z</time>
      </trkpt>
      <trkpt lat="48.64854" lon="-0.94938">
        <ele>203.804</ele>
        <time>2019-11-12T12:21:59.001Z</time>
      </trkpt>
      <trkpt lat="48.64939" lon="-0.94891">
        <ele>202.509</ele>
        <time>2019-11-12T12:22:29.001Z</time>
      </trkpt>
      <trkpt lat="48.65032" lon="-0.94871">
        <ele>200.844</ele>
        <time>2019-11-12T12:23:02Z</time>
      </trkpt>
      <trkpt lat="48.65103" lon="-0.9487">
        <ele>206.451</ele>
        <time>2019-11-12T12:23:35.001Z</time>
      </trkpt>
      <trkpt lat="48.65178" lon="-0.9489">
        <ele>207.043</ele>
        <time>2019-11-12T12:24:05.001Z</time>
      </trkpt>
      <trkpt lat="48.65243" lon="-0.94928">
        <ele>210.477</ele>
        <time>2019-11-12T12:24:38.001Z</time>
      </trkpt>
      <trkpt lat="48.65316" lon="-0.94994">
        <ele>215.7</ele>
        <time>2019-11-12T12:25:11.001Z</time>
      </trkpt>
      <trkpt lat="48.65391" lon="-0.95057">
        <ele>214.055</ele>
        <time>2019-11-12T12:25:41.001Z</time>
      </trkpt>
      <trkpt lat="48.6547" lon="-0.95112">
        <ele>213.208</ele>
        <time>2019-11-12T12:26:14.001Z</time>
      </trkpt>
      <trkpt lat="48.65557" lon="-0.95147">
        <ele>217.987</ele>
        <time>2019-11-12T12:26:47.001Z</time>
      </trkpt>
      <trkpt lat="48.65638" lon="-0.95165">
        <ele>223.176</ele>
        <time>2019-11-12T12:27:17.001Z</time>
      </trkpt>
      <trkpt lat="48.65716" lon="-0.95147">
        <ele>221.896</ele>
        <time>2019-11-12T12:27:50.001Z</time>
      </trkpt>
      <trkpt lat="48.65776" lon="-0.95114">
        <ele>223.438</ele>
        <time>2019-11-12T12:28:20.001Z</time>
      </trkpt>
      <trkpt lat="48.65847" lon="-0.95061">
        <ele>223.392</ele>
        <time>2019-11-12T12:28:53.001Z</time>
      </trkpt>
      <trkpt lat="48.65912" lon="-0.94994">
        <ele>226.111</ele>
        <time>2019-11-12T12:29:26.001Z</time>
      </trkpt>
      <trkpt lat="48.65958" lon="-0.94924">
        <ele>237.189</ele>
        <time>2019-11-12T12:29:56.001Z</time>
      </trkpt>
      <trkpt lat="48.66015" lon="-0.94829">
        <ele>253.36</ele>
        <time>2019-11-12T12:30:29.001Z</time>
      </trkpt>
      <trkpt lat="48.6607" lon="-0.94742">
        <ele>255.375</ele>
        <time>2019-11-12T12:31:02Z</time>
      </trkpt>
      <trkpt lat="48.66119" lon="-0.94653">
        <ele>260.28</ele>
        <time>2019-11-12T12:31:32.001Z</time>
      </trkpt>
      <trkpt lat="48.66198" lon="-0.94568">
        <ele>243.801</ele>
        <time>2019-11-12T12:32:05.001Z</time>
      </trkpt>
      <trkpt lat="48.66285" lon="-0.94471">
        <ele>242.411</ele>
        <time>2019-11-12T12:32:38.001Z</time>
      </trkpt>
      <trkpt lat="48.66374" lon="-0.94337">
        <ele>235.223</ele>
        <time>2019-11-12T12:33:08.001Z</time>
      </trkpt>
      <trkpt lat="48.66418" lon="-0.94167">
        <ele>228.403</ele>
        <time>2019-11-12T12:33:41.001Z</time>
      </trkpt>
      <trkpt lat="48.66466" lon="-0.94023">
        <ele>234.909</ele>
        <time>2019-11-12T12:34:14.001Z</time>
      </trkpt>
      <trkpt lat="48.66516" lon="-0.93889">
        <ele>241.626</ele>
        <time>2019-11-12T12:34:44.001Z</time>
      </trkpt>
      <trkpt lat="48.66565" lon="-0.93712">
        <ele>240.924</ele>
        <time>2019-11-12T12:35:17.001Z</time>
      </trkpt>
      <trkpt lat="48.66609" lon="-0.93542">
        <ele>238.31</ele>
        <time>2019-11-12T12:35:50.001Z</time>
      </trkpt>
      <trkpt lat="48.6665" lon="-0.93406">
        <ele>238.096</ele>
        <time>2019-11-12T12:36:20.001Z</time>
      </trkpt>
      <trkpt lat="48.66693" lon="-0.93241">
        <ele>239.995</ele>
        <time>2019-11-12T12:36:53.001Z</time>
      </trkpt>
      <trkpt lat="48.66746" lon="-0.93082">
        <ele>239.653</ele>
        <time>2019-11-12T12:37:26.001Z</time>
      </trkpt>
      <trkpt lat="48.66787" lon="-0.9293">
        <ele>243.245</ele>
        <time>2019-11-12T12:37:56.001Z</time>
      </trkpt>
      <trkpt lat="48.66815" lon="-0.92768">
        <ele>244.092</ele>
        <time>2019-11-12T12:38:29.001Z</time>
      </trkpt>
      <trkpt lat="48.66824" lon="-0.92599">
        <ele>243.868</ele>
        <time>2019-11-12T12:39:02Z</time>
      </trkpt>
      <trkpt lat="48.66817" lon="-0.92471">
        <ele>248.556</ele>
        <time>2019-11-12T12:39:32.001Z</time>
      </trkpt>
      <trkpt lat="48.66792" lon="-0.9232">
        <ele>255.989</ele>
        <time>2019-11-12T12:40:05.001Z</time>
      </trkpt>
      <trkpt lat="48.66752" lon="-0.9217">
        <ele>257.759</ele>
        <time>2019-11-12T12:40:38.001Z</time>
      </trkpt>
      <trkpt lat="48.66731" lon="-0.92048">
        <ele>256.3</ele>
        <time>2019-11-12T12:41:08.001Z</time>
      </trkpt>
      <trkpt lat="48.66721" lon="-0.91889">
        <ele>255.956</ele>
        <time>2019-11-12T12:41:41.001Z</time>
      </trkpt>
      <trkpt lat="48.66733" lon="-0.91735">
        <ele>257.533</ele>
        <time>2019-11-12T12:42:14.001Z</time>
      </trkpt>
      <trkpt lat="48.66763" lon="-0.91588">
        <ele>256.947</ele>
        <time>2019-11-12T12:42:44.001Z</time>
      </trkpt>
      <trkpt lat="48.66799" lon="-0.91464">
        <ele>266.465</ele>
        <time>2019-11-12T12:43:17.001Z</time>
      </trkpt>
      <trkpt lat="48.66829" lon="-0.91326">
        <ele>265.819</ele>
        <time>2019-11-12T12:43:53.001Z</time>
      </trkpt>
      <trkpt lat="48.66876" lon="-0.91175">
        <ele>266.883</ele>
        <time>2019-11-12T12:44:23.001Z</time>
      </trkpt>
      <trkpt lat="48.66954" lon="-0.91043">
        <ele>265.945</ele>
        <time>2019-11-12T12:44:56.001Z</time>
      </trkpt>
      <trkpt lat="48.67061" lon="-0.90953">
        <ele>261.969</ele>
        <time>2019-11-12T12:45:29.001Z</time>
      </trkpt>
      <trkpt lat="48.67169" lon="-0.90918">
        <ele>263.268</ele>
        <time>2019-11-12T12:45:59.001Z</time>
      </trkpt>
      <trkpt lat="48.67289" lon="-0.90924">
        <ele>266.13</ele>
        <time>2019-11-12T12:46:32.001Z</time>
      </trkpt>
      <trkpt lat="48.67409" lon="-0.90936">
        <ele>268.762</ele>
        <time>2019-11-12T12:47:05.001Z</time>
      </trkpt>
      <trkpt lat="48.67514" lon="-0.90954">
        <ele>268.014</ele>
        <time>2019-11-12T12:47:35.001Z</time>
      </trkpt>
      <trkpt lat="48.6761" lon="-0.91012">
        <ele>262.579</ele>
        <time>2019-11-12T12:48:08.001Z</time>
      </trkpt>
      <trkpt lat="48.67694" lon="-0.91108">
        <ele>260.666</ele>
        <time>2019-11-12T12:48:38.001Z</time>
      </trkpt>
      <trkpt lat="48.67768" lon="-0.91211">
        <ele>268.187</ele>
        <time>2019-11-12T12:49:11.001Z</time>
      </trkpt>
      <trkpt lat="48.67856" lon="-0.91316">
        <ele>274.552</ele>
        <time>2019-11-12T12:49:44.001Z</time>
      </trkpt>
      <trkpt lat="48.67961" lon="-0.91365">
        <ele>279.402</ele>
        <time>2019-11-12T12:50:14.001Z</time>
      </trkpt>
      <trkpt lat="48.6806" lon="-0.91341">
        <ele>268.265</ele>
        <time>2019-11-12T12:50:47.001Z</time>
      </trkpt>
      <trkpt lat="48.68156" lon="-0.91263">
        <ele>269.371</ele>
        <time>2019-11-12T12:51:20.001Z</time>
      </trkpt>
      <trkpt lat="48.68233" lon="-0.91115">
        <ele>273.509</ele>
        <time>2019-11-12T12:51:50.001Z</time>
      </trkpt>
      <trkpt lat="48.68268" lon="-0.90938">
        <ele>274.874</ele>
        <time>2019-11-12T12:52:23.001Z</time>
      </trkpt>
      <trkpt lat="48.68284" lon="-0.90849">
        <ele>277.124</ele>
        <time>2019-11-12T13:12:05.001Z</time>
      </trkpt>
      <trkpt lat="48.68299" lon="-0.90765">
        <ele>284.24</ele>
        <time>2019-11-12T13:12:38.001Z</time>
      </trkpt>
      <trkpt lat="48.6833" lon="-0.90626">
        <ele>287.706</ele>
        <time>2019-11-12T13:13:11.001Z</time>
      </trkpt>
      <trkpt lat="48.68358" lon="-0.90481">
        <ele>290.896</ele>
        <time>2019-11-12T13:13:44.001Z</time>
      </trkpt>
      <trkpt lat="48.68383" lon="-0.90362">
        <ele>279.361</ele>
        <time>2019-11-12T13:14:14.001Z</time>
      </trkpt>
      <trkpt lat="48.68427" lon="-0.90208">
        <ele>279.874</ele>
        <time>2019-11-12T13:14:47.001Z</time>
      </trkpt>
      <trkpt lat="48.68542" lon="-0.90017">
        <ele>275.861</ele>
        <time>2019-11-12T13:15:20.001Z</time>
      </trkpt>
      <trkpt lat="48.68646" lon="-0.89933">
        <ele>271.217</ele>
        <time>2019-11-12T13:17:20.001Z</time>
      </trkpt>
      <trkpt lat="48.68763" lon="-0.899">
        <ele>273.27</ele>
        <time>2019-11-12T13:17:53.001Z</time>
      </trkpt>
      <trkpt lat="48.68959" lon="-0.89895">
        <ele>276.23</ele>
        <time>2019-11-12T13:18:26.001Z</time>
      </trkpt>
      <trkpt lat="48.69143" lon="-0.89892">
        <ele>271.773</ele>
        <time>2019-11-12T13:18:56.001Z</time>
      </trkpt>
      <trkpt lat="48.69308" lon="-0.89943">
        <ele>272.292</ele>
        <time>2019-11-12T13:19:29.001Z</time>
      </trkpt>
      <trkpt lat="48.69438" lon="-0.90115">
        <ele>265.905</ele>
        <time>2019-11-12T13:20:02Z</time>
      </trkpt>
      <trkpt lat="48.69506" lon="-0.90343">
        <ele>247.13</ele>
        <time>2019-11-12T13:20:32.001Z</time>
      </trkpt>
      <trkpt lat="48.69575" lon="-0.90569">
        <ele>245.144</ele>
        <time>2019-11-12T13:21:05.001Z</time>
      </trkpt>
      <trkpt lat="48.69644" lon="-0.90778">
        <ele>245.57</ele>
        <time>2019-11-12T13:21:38.001Z</time>
      </trkpt>
      <trkpt lat="48.69697" lon="-0.90942">
        <ele>239.106</ele>
        <time>2019-11-12T13:22:11.001Z</time>
      </trkpt>
      <trkpt lat="48.69744" lon="-0.91092">
        <ele>240.156</ele>
        <time>2019-11-12T13:22:44.001Z</time>
      </trkpt>
      <trkpt lat="48.69807" lon="-0.91295">
        <ele>235.626</ele>
        <time>2019-11-12T13:23:17.001Z</time>
      </trkpt>
      <trkpt lat="48.69875" lon="-0.91512">
        <ele>232.43</ele>
        <time>2019-11-12T13:23:47.001Z</time>
      </trkpt>
      <trkpt lat="48.69898" lon="-0.91604">
        <ele>229.103</ele>
        <time>2019-11-12T13:24:53.001Z</time>
      </trkpt>
      <trkpt lat="48.69942" lon="-0.91843">
        <ele>224.168</ele>
        <time>2019-11-12T13:25:26.001Z</time>
      </trkpt>
      <trkpt lat="48.69975" lon="-0.92089">
        <ele>215.257</ele>
        <time>2019-11-12T13:25:56.001Z</time>
      </trkpt>
      <trkpt lat="48.70006" lon="-0.92332">
        <ele>218.202</ele>
        <time>2019-11-12T13:26:29.001Z</time>
      </trkpt>
      <trkpt lat="48.70037" lon="-0.92521">
        <ele>212.397</ele>
        <time>2019-11-12T13:27:02Z</time>
      </trkpt>
      <trkpt lat="48.70068" lon="-0.92724">
        <ele>207.109</ele>
        <time>2019-11-12T13:27:32.001Z</time>
      </trkpt>
      <trkpt lat="48.70127" lon="-0.92818">
        <ele>207.086</ele>
        <time>2019-11-12T13:28:05.001Z</time>
      </trkpt>
      <trkpt lat="48.70177" lon="-0.92801">
        <ele>198.692</ele>
        <time>2019-11-12T13:28:35.001Z</time>
      </trkpt>
      <trkpt lat="48.70122" lon="-0.92863">
        <ele>199.506</ele>
        <time>2019-11-12T13:29:23.001Z</time>
      </trkpt>
      <trkpt lat="48.70098" lon="-0.92947">
        <ele>206.422</ele>
        <time>2019-11-12T13:29:56.001Z</time>
      </trkpt>
      <trkpt lat="48.70119" lon="-0.93092">
        <ele>206.832</ele>
        <time>2019-11-12T13:30:26.001Z</time>
      </trkpt>
      <trkpt lat="48.70157" lon="-0.93312">
        <ele>199.361</ele>
        <time>2019-11-12T13:30:59.001Z</time>
      </trkpt>
      <trkpt lat="48.7021" lon="-0.93528">
        <ele>202.979</ele>
        <time>2019-11-12T13:31:32.001Z</time>
      </trkpt>
      <trkpt lat="48.70286" lon="-0.93724">
        <ele>195.087</ele>
        <time>2019-11-12T13:32:02Z</time>
      </trkpt>
      <trkpt lat="48.70355" lon="-0.93909">
        <ele>193.915</ele>
        <time>2019-11-12T13:32:35.001Z</time>
      </trkpt>
      <trkpt lat="48.70417" lon="-0.94094">
        <ele>189.321</ele>
        <time>2019-11-12T13:33:08.001Z</time>
      </trkpt>
      <trkpt lat="48.70468" lon="-0.94226">
        <ele>184.695</ele>
        <time>2019-11-12T13:33:41.001Z</time>
      </trkpt>
      <trkpt lat="48.70583" lon="-0.9441">
        <ele>188.61</ele>
        <time>2019-11-12T13:34:14.001Z</time>
      </trkpt>
      <trkpt lat="48.70726" lon="-0.9449">
        <ele>185.082</ele>
        <time>2019-11-12T13:34:47.001Z</time>
      </trkpt>
      <trkpt lat="48.70814" lon="-0.94489">
        <ele>180.188</ele>
        <time>2019-11-12T13:35:20.001Z</time>
      </trkpt>
      <trkpt lat="48.70977" lon="-0.9443">
        <ele>177.4</ele>
        <time>2019-11-12T13:35:53.001Z</time>
      </trkpt>
      <trkpt lat="48.71122" lon="-0.94368">
        <ele>174.973</ele>
        <time>2019-11-12T13:36:26.001Z</time>
      </trkpt>
      <trkpt lat="48.71254" lon="-0.94312">
        <ele>179.29</ele>
        <time>2019-11-12T13:36:56.001Z</time>
      </trkpt>
      <trkpt lat="48.71359" lon="-0.94265">
        <ele>177.469</ele>
        <time>2019-11-12T13:37:29.001Z</time>
      </trkpt>
      <trkpt lat="48.71457" lon="-0.94222">
        <ele>178.422</ele>
        <time>2019-11-12T13:38:02Z</time>
      </trkpt>
      <trkpt lat="48.71546" lon="-0.94197">
        <ele>183.174</ele>
        <time>2019-11-12T13:38:32.001Z</time>
      </trkpt>
      <trkpt lat="48.71658" lon="-0.94208">
        <ele>188.798</ele>
        <time>2019-11-12T13:39:05.001Z</time>
      </trkpt>
      <trkpt lat="48.71741" lon="-0.94257">
        <ele>193.751</ele>
        <time>2019-11-12T13:39:38.001Z</time>
      </trkpt>
      <trkpt lat="48.71832" lon="-0.9433">
        <ele>195.508</ele>
        <time>2019-11-12T13:40:08.001Z</time>
      </trkpt>
      <trkpt lat="48.71922" lon="-0.94385">
        <ele>194.5</ele>
        <time>2019-11-12T13:40:41.001Z</time>
      </trkpt>
      <trkpt lat="48.72004" lon="-0.9439">
        <ele>195.344</ele>
        <time>2019-11-12T13:41:14.001Z</time>
      </trkpt>
      <trkpt lat="48.72079" lon="-0.94368">
        <ele>201.4</ele>
        <time>2019-11-12T13:41:44.001Z</time>
      </trkpt>
      <trkpt lat="48.72167" lon="-0.94283">
        <ele>212.009</ele>
        <time>2019-11-12T13:42:17.001Z</time>
      </trkpt>
      <trkpt lat="48.72235" lon="-0.94164">
        <ele>220.179</ele>
        <time>2019-11-12T13:42:50.001Z</time>
      </trkpt>
      <trkpt lat="48.72297" lon="-0.94051">
        <ele>205.769</ele>
        <time>2019-11-12T13:43:20.001Z</time>
      </trkpt>
      <trkpt lat="48.72374" lon="-0.93945">
        <ele>203.89</ele>
        <time>2019-11-12T13:43:53.001Z</time>
      </trkpt>
      <trkpt lat="48.72445" lon="-0.93859">
        <ele>205.27</ele>
        <time>2019-11-12T13:44:26.001Z</time>
      </trkpt>
      <trkpt lat="48.7252" lon="-0.93754">
        <ele>210.456</ele>
        <time>2019-11-12T13:44:56.001Z</time>
      </trkpt>
      <trkpt lat="48.7257" lon="-0.93599">
        <ele>213.71</ele>
        <time>2019-11-12T13:45:29.001Z</time>
      </trkpt>
      <trkpt lat="48.72575" lon="-0.93488">
        <ele>215.468</ele>
        <time>2019-11-12T13:46:02Z</time>
      </trkpt>
      <trkpt lat="48.72554" lon="-0.93344">
        <ele>219.739</ele>
        <time>2019-11-12T13:46:32.001Z</time>
      </trkpt>
      <trkpt lat="48.7252" lon="-0.93155">
        <ele>219.914</ele>
        <time>2019-11-12T13:47:05.001Z</time>
      </trkpt>
      <trkpt lat="48.72515" lon="-0.92976">
        <ele>219.176</ele>
        <time>2019-11-12T13:47:35.001Z</time>
      </trkpt>
      <trkpt lat="48.72512" lon="-0.92756">
        <ele>223.682</ele>
        <time>2019-11-12T13:48:08.001Z</time>
      </trkpt>
      <trkpt lat="48.72566" lon="-0.92552">
        <ele>216.213</ele>
        <time>2019-11-12T13:48:41.001Z</time>
      </trkpt>
      <trkpt lat="48.72658" lon="-0.92435">
        <ele>212.373</ele>
        <time>2019-11-12T13:49:11.001Z</time>
      </trkpt>
      <trkpt lat="48.72781" lon="-0.92399">
        <ele>214.197</ele>
        <time>2019-11-12T13:49:44.001Z</time>
      </trkpt>
      <trkpt lat="48.72878" lon="-0.92438">
        <ele>214.946</ele>
        <time>2019-11-12T13:50:17.001Z</time>
      </trkpt>
      <trkpt lat="48.72964" lon="-0.92498">
        <ele>224.574</ele>
        <time>2019-11-12T13:50:47.001Z</time>
      </trkpt>
      <trkpt lat="48.73059" lon="-0.92549">
        <ele>228.863</ele>
        <time>2019-11-12T13:51:20.001Z</time>
      </trkpt>
      <trkpt lat="48.73173" lon="-0.92547">
        <ele>238.148</ele>
        <time>2019-11-12T13:51:53.001Z</time>
      </trkpt>
      <trkpt lat="48.73259" lon="-0.92487">
        <ele>232.469</ele>
        <time>2019-11-12T13:52:23.001Z</time>
      </trkpt>
      <trkpt lat="48.73327" lon="-0.92393">
        <ele>233.704</ele>
        <time>2019-11-12T13:52:56.001Z</time>
      </trkpt>
      <trkpt lat="48.73381" lon="-0.92292">
        <ele>232.299</ele>
        <time>2019-11-12T13:53:29.001Z</time>
      </trkpt>
      <trkpt lat="48.73437" lon="-0.92189">
        <ele>237.84</ele>
        <time>2019-11-12T13:53:59.001Z</time>
      </trkpt>
      <trkpt lat="48.73504" lon="-0.92075">
        <ele>240.381</ele>
        <time>2019-11-12T13:54:32.001Z</time>
      </trkpt>
      <trkpt lat="48.73562" lon="-0.91971">
        <ele>241.592</ele>
        <time>2019-11-12T13:55:05.001Z</time>
      </trkpt>
      <trkpt lat="48.7362" lon="-0.91868">
        <ele>241.446</ele>
        <time>2019-11-12T13:55:35.001Z</time>
      </trkpt>
      <trkpt lat="48.73674" lon="-0.91776">
        <ele>244.075</ele>
        <time>2019-11-12T13:56:08.001Z</time>
      </trkpt>
      <trkpt lat="48.73702" lon="-0.91715">
        <ele>241.258</ele>
        <time>2019-11-12T13:57:29.001Z</time>
      </trkpt>
      <trkpt lat="48.73756" lon="-0.91601">
        <ele>241.576</ele>
        <time>2019-11-12T13:57:59.001Z</time>
      </trkpt>
      <trkpt lat="48.73718" lon="-0.91591">
        <ele>245.141</ele>
        <time>2019-11-12T13:58:41.001Z</time>
      </trkpt>
      <trkpt lat="48.7366" lon="-0.91629">
        <ele>245.864</ele>
        <time>2019-11-12T13:59:20.001Z</time>
      </trkpt>
      <trkpt lat="48.73609" lon="-0.91657">
        <ele>248.353</ele>
        <time>2019-11-12T13:59:50.001Z</time>
      </trkpt>
      <trkpt lat="48.73511" lon="-0.917">
        <ele>247.69</ele>
        <time>2019-11-12T14:00:23.001Z</time>
      </trkpt>
      <trkpt lat="48.7342" lon="-0.91669">
        <ele>240.338</ele>
        <time>2019-11-12T14:00:56.001Z</time>
      </trkpt>
      <trkpt lat="48.73446" lon="-0.91694">
        <ele>240.903</ele>
        <time>2019-11-12T14:02:44.001Z</time>
      </trkpt>
      <trkpt lat="48.73433" lon="-0.91681">
        <ele>241.61</ele>
        <time>2019-11-12T14:03:26.001Z</time>
      </trkpt>
      <trkpt lat="48.73417" lon="-0.91666">
        <ele>241.908</ele>
        <time>2019-11-12T14:04:14.001Z</time>
      </trkpt>
      <trkpt lat="48.73421" lon="-0.91669">
        <ele>243.209</ele>
        <time>2019-11-12T14:04:59.001Z</time>
      </trkpt>
      <trkpt lat="48.73496" lon="-0.91652">
        <ele>245.605</ele>
        <time>2019-11-12T14:05:32.001Z</time>
      </trkpt>
      <trkpt lat="48.73554" lon="-0.91628">
        <ele>252.93</ele>
        <time>2019-11-12T14:06:05.001Z</time>
      </trkpt>
      <trkpt lat="48.73605" lon="-0.916">
        <ele>257.604</ele>
        <time>2019-11-12T14:06:41.001Z</time>
      </trkpt>
      <trkpt lat="48.73719" lon="-0.91532">
        <ele>257.512</ele>
        <time>2019-11-12T14:07:14.001Z</time>
      </trkpt>
      <trkpt lat="48.73807" lon="-0.9134">
        <ele>249.461</ele>
        <time>2019-11-12T14:07:47.001Z</time>
      </trkpt>
      <trkpt lat="48.73803" lon="-0.91168">
        <ele>245.591</ele>
        <time>2019-11-12T14:08:17.001Z</time>
      </trkpt>
      <trkpt lat="48.73797" lon="-0.91026">
        <ele>243.332</ele>
        <time>2019-11-12T14:08:50.001Z</time>
      </trkpt>
      <trkpt lat="48.73805" lon="-0.90875">
        <ele>251.654</ele>
        <time>2019-11-12T14:09:20.001Z</time>
      </trkpt>
      <trkpt lat="48.73849" lon="-0.90732">
        <ele>260.14</ele>
        <time>2019-11-12T14:09:53.001Z</time>
      </trkpt>
      <trkpt lat="48.73909" lon="-0.90601">
        <ele>262.476</ele>
        <time>2019-11-12T14:10:26.001Z</time>
      </trkpt>
      <trkpt lat="48.73949" lon="-0.90482">
        <ele>254.92</ele>
        <time>2019-11-12T14:10:56.001Z</time>
      </trkpt>
      <trkpt lat="48.73991" lon="-0.90356">
        <ele>258.014</ele>
        <time>2019-11-12T14:11:29.001Z</time>
      </trkpt>
      <trkpt lat="48.7403" lon="-0.90236">
        <ele>260.539</ele>
        <time>2019-11-12T14:12:02Z</time>
      </trkpt>
      <trkpt lat="48.74052" lon="-0.90109">
        <ele>264.004</ele>
        <time>2019-11-12T14:12:32.001Z</time>
      </trkpt>
      <trkpt lat="48.74066" lon="-0.89981">
        <ele>262.499</ele>
        <time>2019-11-12T14:13:05.001Z</time>
      </trkpt>
      <trkpt lat="48.74064" lon="-0.89859">
        <ele>264.414</ele>
        <time>2019-11-12T14:13:38.001Z</time>
      </trkpt>
      <trkpt lat="48.74054" lon="-0.89745">
        <ele>265.908</ele>
        <time>2019-11-12T14:14:08.001Z</time>
      </trkpt>
      <trkpt lat="48.74042" lon="-0.89622">
        <ele>267.988</ele>
        <time>2019-11-12T14:14:41.001Z</time>
      </trkpt>
      <trkpt lat="48.74034" lon="-0.89487">
        <ele>265.418</ele>
        <time>2019-11-12T14:15:14.001Z</time>
      </trkpt>
      <trkpt lat="48.74023" lon="-0.894">
        <ele>270.455</ele>
        <time>2019-11-12T14:15:44.001Z</time>
      </trkpt>
      <trkpt lat="48.74005" lon="-0.89265">
        <ele>270.859</ele>
        <time>2019-11-12T14:16:17.001Z</time>
      </trkpt>
      <trkpt lat="48.73997" lon="-0.89146">
        <ele>260.464</ele>
        <time>2019-11-12T14:16:50.001Z</time>
      </trkpt>
      <trkpt lat="48.73988" lon="-0.8904">
        <ele>266.966</ele>
        <time>2019-11-12T14:17:20.001Z</time>
      </trkpt>
      <trkpt lat="48.7398" lon="-0.88927">
        <ele>276.506</ele>
        <time>2019-11-12T14:17:53.001Z</time>
      </trkpt>
      <trkpt lat="48.73976" lon="-0.88805">
        <ele>284.801</ele>
        <time>2019-11-12T14:18:26.001Z</time>
      </trkpt>
      <trkpt lat="48.73979" lon="-0.88691">
        <ele>286.579</ele>
        <time>2019-11-12T14:18:56.001Z</time>
      </trkpt>
      <trkpt lat="48.7398" lon="-0.88569">
        <ele>284.955</ele>
        <time>2019-11-12T14:19:29.001Z</time>
      </trkpt>
      <trkpt lat="48.73998" lon="-0.8843">
        <ele>295.236</ele>
        <time>2019-11-12T14:20:02Z</time>
      </trkpt>
      <trkpt lat="48.7403" lon="-0.88327">
        <ele>297.452</ele>
        <time>2019-11-12T14:20:32.001Z</time>
      </trkpt>
      <trkpt lat="48.74082" lon="-0.88228">
        <ele>301.683</ele>
        <time>2019-11-12T14:21:05.001Z</time>
      </trkpt>
      <trkpt lat="48.74151" lon="-0.88152">
        <ele>296.229</ele>
        <time>2019-11-12T14:21:38.001Z</time>
      </trkpt>
      <trkpt lat="48.74219" lon="-0.88104">
        <ele>296.297</ele>
        <time>2019-11-12T14:22:08.001Z</time>
      </trkpt>
      <trkpt lat="48.74292" lon="-0.88059">
        <ele>300.646</ele>
        <time>2019-11-12T14:22:41.001Z</time>
      </trkpt>
      <trkpt lat="48.74367" lon="-0.88006">
        <ele>300.722</ele>
        <time>2019-11-12T14:23:14.001Z</time>
      </trkpt>
      <trkpt lat="48.74442" lon="-0.87964">
        <ele>301.748</ele>
        <time>2019-11-12T14:23:44.001Z</time>
      </trkpt>
      <trkpt lat="48.7454" lon="-0.87903">
        <ele>298.551</ele>
        <time>2019-11-12T14:24:17.001Z</time>
      </trkpt>
      <trkpt lat="48.74617" lon="-0.87849">
        <ele>295.226</ele>
        <time>2019-11-12T14:24:50.001Z</time>
      </trkpt>
      <trkpt lat="48.74706" lon="-0.87799">
        <ele>295.342</ele>
        <time>2019-11-12T14:25:20.001Z</time>
      </trkpt>
      <trkpt lat="48.7478" lon="-0.87731">
        <ele>301.242</ele>
        <time>2019-11-12T14:25:56.001Z</time>
      </trkpt>
      <trkpt lat="48.74872" lon="-0.87646">
        <ele>302.377</ele>
        <time>2019-11-12T14:26:29.001Z</time>
      </trkpt>
      <trkpt lat="48.74952" lon="-0.87547">
        <ele>301.359</ele>
        <time>2019-11-12T14:26:59.001Z</time>
      </trkpt>
      <trkpt lat="48.75071" lon="-0.87443">
        <ele>297.326</ele>
        <time>2019-11-12T14:27:32.001Z</time>
      </trkpt>
      <trkpt lat="48.75193" lon="-0.87357">
        <ele>300.749</ele>
        <time>2019-11-12T14:28:05.001Z</time>
      </trkpt>
      <trkpt lat="48.75281" lon="-0.87318">
        <ele>299.899</ele>
        <time>2019-11-12T14:28:35.001Z</time>
      </trkpt>
      <trkpt lat="48.75414" lon="-0.87316">
        <ele>303.199</ele>
        <time>2019-11-12T14:29:08.001Z</time>
      </trkpt>
      <trkpt lat="48.75531" lon="-0.87347">
        <ele>302.634</ele>
        <time>2019-11-12T14:29:38.001Z</time>
      </trkpt>
      <trkpt lat="48.75657" lon="-0.87386">
        <ele>302.031</ele>
        <time>2019-11-12T14:30:11.001Z</time>
      </trkpt>
      <trkpt lat="48.75829" lon="-0.87433">
        <ele>290.152</ele>
        <time>2019-11-12T14:30:44.001Z</time>
      </trkpt>
      <trkpt lat="48.76011" lon="-0.87428">
        <ele>284.487</ele>
        <time>2019-11-12T14:31:14.001Z</time>
      </trkpt>
      <trkpt lat="48.76177" lon="-0.87462">
        <ele>281.711</ele>
        <time>2019-11-12T14:31:47.001Z</time>
      </trkpt>
      <trkpt lat="48.76349" lon="-0.876">
        <ele>271.323</ele>
        <time>2019-11-12T14:32:20.001Z</time>
      </trkpt>
      <trkpt lat="48.76478" lon="-0.8774">
        <ele>269.186</ele>
        <time>2019-11-12T14:32:50.001Z</time>
      </trkpt>
      <trkpt lat="48.7664" lon="-0.87844">
        <ele>278.558</ele>
        <time>2019-11-12T14:33:23.001Z</time>
      </trkpt>
      <trkpt lat="48.76794" lon="-0.87882">
        <ele>270.364</ele>
        <time>2019-11-12T14:33:56.001Z</time>
      </trkpt>
      <trkpt lat="48.76936" lon="-0.87907">
        <ele>266.801</ele>
        <time>2019-11-12T14:34:26.001Z</time>
      </trkpt>
      <trkpt lat="48.77116" lon="-0.87951">
        <ele>264.265</ele>
        <time>2019-11-12T14:34:59.001Z</time>
      </trkpt>
      <trkpt lat="48.77268" lon="-0.88063">
        <ele>244.494</ele>
        <time>2019-11-12T14:35:32.001Z</time>
      </trkpt>
      <trkpt lat="48.7737" lon="-0.88237">
        <ele>244.653</ele>
        <time>2019-11-12T14:36:02Z</time>
      </trkpt>
      <trkpt lat="48.77434" lon="-0.88485">
        <ele>248.129</ele>
        <time>2019-11-12T14:36:35.001Z</time>
      </trkpt>
      <trkpt lat="48.77468" lon="-0.88757">
        <ele>244.274</ele>
        <time>2019-11-12T14:37:08.001Z</time>
      </trkpt>
      <trkpt lat="48.77506" lon="-0.88992">
        <ele>236.45</ele>
        <time>2019-11-12T14:37:38.001Z</time>
      </trkpt>
      <trkpt lat="48.77541" lon="-0.8922">
        <ele>232.588</ele>
        <time>2019-11-12T14:38:11.001Z</time>
      </trkpt>
      <trkpt lat="48.77546" lon="-0.89496">
        <ele>225.548</ele>
        <time>2019-11-12T14:38:44.001Z</time>
      </trkpt>
      <trkpt lat="48.77506" lon="-0.89729">
        <ele>222.698</ele>
        <time>2019-11-12T14:39:14.001Z</time>
      </trkpt>
      <trkpt lat="48.77438" lon="-0.89908">
        <ele>225.514</ele>
        <time>2019-11-12T14:39:53.001Z</time>
      </trkpt>
      <trkpt lat="48.77373" lon="-0.90065">
        <ele>228.096</ele>
        <time>2019-11-12T14:40:29.001Z</time>
      </trkpt>
      <trkpt lat="48.77342" lon="-0.90278">
        <ele>231.624</ele>
        <time>2019-11-12T14:40:59.001Z</time>
      </trkpt>
      <trkpt lat="48.77358" lon="-0.9052">
        <ele>227.133</ele>
        <time>2019-11-12T14:41:32.001Z</time>
      </trkpt>
      <trkpt lat="48.77447" lon="-0.90751">
        <ele>226.105</ele>
        <time>2019-11-12T14:42:05.001Z</time>
      </trkpt>
      <trkpt lat="48.77578" lon="-0.90891">
        <ele>221.224</ele>
        <time>2019-11-12T14:42:35.001Z</time>
      </trkpt>
      <trkpt lat="48.77746" lon="-0.90946">
        <ele>215.862</ele>
        <time>2019-11-12T14:43:08.001Z</time>
      </trkpt>
      <trkpt lat="48.7793" lon="-0.90917">
        <ele>212.879</ele>
        <time>2019-11-12T14:43:41.001Z</time>
      </trkpt>
      <trkpt lat="48.78113" lon="-0.90808">
        <ele>198.857</ele>
        <time>2019-11-12T14:44:11.001Z</time>
      </trkpt>
      <trkpt lat="48.78233" lon="-0.90707">
        <ele>194.472</ele>
        <time>2019-11-12T14:44:44.001Z</time>
      </trkpt>
      <trkpt lat="48.78398" lon="-0.90574">
        <ele>191.751</ele>
        <time>2019-11-12T14:45:17.001Z</time>
      </trkpt>
      <trkpt lat="48.78558" lon="-0.90507">
        <ele>190.273</ele>
        <time>2019-11-12T14:45:47.001Z</time>
      </trkpt>
      <trkpt lat="48.78746" lon="-0.90524">
        <ele>190.579</ele>
        <time>2019-11-12T14:46:20.001Z</time>
      </trkpt>
      <trkpt lat="48.78905" lon="-0.90623">
        <ele>180.02</ele>
        <time>2019-11-12T14:46:53.001Z</time>
      </trkpt>
      <trkpt lat="48.79008" lon="-0.90694">
        <ele>180.65</ele>
        <time>2019-11-12T14:47:23.001Z</time>
      </trkpt>
      <trkpt lat="48.79159" lon="-0.90757">
        <ele>178.788</ele>
        <time>2019-11-12T14:47:56.001Z</time>
      </trkpt>
      <trkpt lat="48.79289" lon="-0.90804">
        <ele>183.239</ele>
        <time>2019-11-12T14:48:26.001Z</time>
      </trkpt>
      <trkpt lat="48.79464" lon="-0.90859">
        <ele>180.372</ele>
        <time>2019-11-12T14:48:59.001Z</time>
      </trkpt>
      <trkpt lat="48.79586" lon="-0.90901">
        <ele>183.768</ele>
        <time>2019-11-12T14:49:32.001Z</time>
      </trkpt>
      <trkpt lat="48.79709" lon="-0.90943">
        <ele>187.364</ele>
        <time>2019-11-12T14:50:02Z</time>
      </trkpt>
      <trkpt lat="48.79838" lon="-0.90988">
        <ele>186.446</ele>
        <time>2019-11-12T14:50:35.001Z</time>
      </trkpt>
      <trkpt lat="48.8" lon="-0.91042">
        <ele>182.159</ele>
        <time>2019-11-12T14:51:08.001Z</time>
      </trkpt>
      <trkpt lat="48.80166" lon="-0.91097">
        <ele>174.983</ele>
        <time>2019-11-12T14:51:38.001Z</time>
      </trkpt>
      <trkpt lat="48.80352" lon="-0.91141">
        <ele>167.467</ele>
        <time>2019-11-12T14:52:11.001Z</time>
      </trkpt>
      <trkpt lat="48.80521" lon="-0.91186">
        <ele>166.859</ele>
        <time>2019-11-12T14:52:44.001Z</time>
      </trkpt>
      <trkpt lat="48.80669" lon="-0.91285">
        <ele>169.263</ele>
        <time>2019-11-12T14:53:14.001Z</time>
      </trkpt>
      <trkpt lat="48.80802" lon="-0.91452">
        <ele>161.585</ele>
        <time>2019-11-12T14:53:47.001Z</time>
      </trkpt>
      <trkpt lat="48.8093" lon="-0.9167">
        <ele>153.003</ele>
        <time>2019-11-12T14:54:20.001Z</time>
      </trkpt>
      <trkpt lat="48.81021" lon="-0.91824">
        <ele>155.628</ele>
        <time>2019-11-12T14:54:50.001Z</time>
      </trkpt>
      <trkpt lat="48.81121" lon="-0.91988">
        <ele>154.785</ele>
        <time>2019-11-12T14:55:23.001Z</time>
      </trkpt>
      <trkpt lat="48.81219" lon="-0.92141">
        <ele>157.672</ele>
        <time>2019-11-12T14:55:56.001Z</time>
      </trkpt>
      <trkpt lat="48.81301" lon="-0.92278">
        <ele>160.665</ele>
        <time>2019-11-12T14:56:26.001Z</time>
      </trkpt>
      <trkpt lat="48.81398" lon="-0.92428">
        <ele>162.633</ele>
        <time>2019-11-12T14:56:59.001Z</time>
      </trkpt>
      <trkpt lat="48.81486" lon="-0.92589">
        <ele>171.092</ele>
        <time>2019-11-12T14:57:32.001Z</time>
      </trkpt>
      <trkpt lat="48.81578" lon="-0.92731">
        <ele>155.436</ele>
        <time>2019-11-12T14:58:02Z</time>
      </trkpt>
      <trkpt lat="48.81667" lon="-0.92882">
        <ele>153.26</ele>
        <time>2019-11-12T14:58:35.001Z</time>
      </trkpt>
      <trkpt lat="48.81756" lon="-0.93027">
        <ele>152.369</ele>
        <time>2019-11-12T14:59:08.001Z</time>
      </trkpt>
      <trkpt lat="48.81826" lon="-0.93143">
        <ele>155.635</ele>
        <time>2019-11-12T14:59:38.001Z</time>
      </trkpt>
      <trkpt lat="48.81907" lon="-0.93267">
        <ele>153.567</ele>
        <time>2019-11-12T15:00:11.001Z</time>
      </trkpt>
      <trkpt lat="48.81964" lon="-0.93366">
        <ele>160.169</ele>
        <time>2019-11-12T15:00:44.001Z</time>
      </trkpt>
      <trkpt lat="48.82033" lon="-0.93467">
        <ele>168.27</ele>
        <time>2019-11-12T15:01:14.001Z</time>
      </trkpt>
      <trkpt lat="48.82131" lon="-0.93554">
        <ele>169.563</ele>
        <time>2019-11-12T15:01:47.001Z</time>
      </trkpt>
      <trkpt lat="48.82226" lon="-0.93606">
        <ele>161.86</ele>
        <time>2019-11-12T15:02:20.001Z</time>
      </trkpt>
      <trkpt lat="48.82296" lon="-0.93626">
        <ele>160.918</ele>
        <time>2019-11-12T15:02:50.001Z</time>
      </trkpt>
      <trkpt lat="48.82386" lon="-0.93649">
        <ele>169.84</ele>
        <time>2019-11-12T15:03:23.001Z</time>
      </trkpt>
      <trkpt lat="48.82502" lon="-0.93679">
        <ele>166.877</ele>
        <time>2019-11-12T15:03:56.001Z</time>
      </trkpt>
      <trkpt lat="48.82591" lon="-0.93702">
        <ele>167.339</ele>
        <time>2019-11-12T15:04:26.001Z</time>
      </trkpt>
      <trkpt lat="48.82684" lon="-0.93726">
        <ele>169.763</ele>
        <time>2019-11-12T15:04:59.001Z</time>
      </trkpt>
      <trkpt lat="48.82772" lon="-0.93749">
        <ele>168.212</ele>
        <time>2019-11-12T15:05:32.001Z</time>
      </trkpt>
      <trkpt lat="48.82841" lon="-0.93765">
        <ele>171.772</ele>
        <time>2019-11-12T15:06:02Z</time>
      </trkpt>
      <trkpt lat="48.82925" lon="-0.93788">
        <ele>166.981</ele>
        <time>2019-11-12T15:06:35.001Z</time>
      </trkpt>
      <trkpt lat="48.82987" lon="-0.93802">
        <ele>170.998</ele>
        <time>2019-11-12T15:07:05.001Z</time>
      </trkpt>
      <trkpt lat="48.83081" lon="-0.93824">
        <ele>173.92</ele>
        <time>2019-11-12T15:07:38.001Z</time>
      </trkpt>
      <trkpt lat="48.83165" lon="-0.9384">
        <ele>176.805</ele>
        <time>2019-11-12T15:08:11.001Z</time>
      </trkpt>
      <trkpt lat="48.83246" lon="-0.93855">
        <ele>180.055</ele>
        <time>2019-11-12T15:08:41.001Z</time>
      </trkpt>
      <trkpt lat="48.83337" lon="-0.93865">
        <ele>178.73</ele>
        <time>2019-11-12T15:09:14.001Z</time>
      </trkpt>
      <trkpt lat="48.83372" lon="-0.93871">
        <ele>179.375</ele>
        <time>2019-11-12T15:13:08.001Z</time>
      </trkpt>
      <trkpt lat="48.83442" lon="-0.93882">
        <ele>185.117</ele>
        <time>2019-11-12T15:13:38.001Z</time>
      </trkpt>
      <trkpt lat="48.83539" lon="-0.93902">
        <ele>188.5</ele>
        <time>2019-11-12T15:14:11.001Z</time>
      </trkpt>
      <trkpt lat="48.83675" lon="-0.93926">
        <ele>190.747</ele>
        <time>2019-11-12T15:14:44.001Z</time>
      </trkpt>
      <trkpt lat="48.83831" lon="-0.93938">
        <ele>181.708</ele>
        <time>2019-11-12T15:15:14.001Z</time>
      </trkpt>
      <trkpt lat="48.84008" lon="-0.93896">
        <ele>172.455</ele>
        <time>2019-11-12T15:15:47.001Z</time>
      </trkpt>
      <trkpt lat="48.84159" lon="-0.93775">
        <ele>168.404</ele>
        <time>2019-11-12T15:16:20.001Z</time>
      </trkpt>
      <trkpt lat="48.84248" lon="-0.93677">
        <ele>159.447</ele>
        <time>2019-11-12T15:16:50.001Z</time>
      </trkpt>
      <trkpt lat="48.84352" lon="-0.93471">
        <ele>156.534</ele>
        <time>2019-11-12T15:17:23.001Z</time>
      </trkpt>
      <trkpt lat="48.84433" lon="-0.93263">
        <ele>155.318</ele>
        <time>2019-11-12T15:17:56.001Z</time>
      </trkpt>
      <trkpt lat="48.8453" lon="-0.93024">
        <ele>153.13</ele>
        <time>2019-11-12T15:18:26.001Z</time>
      </trkpt>
      <trkpt lat="48.84612" lon="-0.92813">
        <ele>148.582</ele>
        <time>2019-11-12T15:18:59.001Z</time>
      </trkpt>
      <trkpt lat="48.84701" lon="-0.9258">
        <ele>139.686</ele>
        <time>2019-11-12T15:19:32.001Z</time>
      </trkpt>
      <trkpt lat="48.84767" lon="-0.92337">
        <ele>142.426</ele>
        <time>2019-11-12T15:20:02Z</time>
      </trkpt>
      <trkpt lat="48.84854" lon="-0.92215">
        <ele>139.771</ele>
        <time>2019-11-12T15:20:35.001Z</time>
      </trkpt>
      <trkpt lat="48.85003" lon="-0.92048">
        <ele>135.113</ele>
        <time>2019-11-12T15:21:08.001Z</time>
      </trkpt>
      <trkpt lat="48.85022" lon="-0.91911">
        <ele>132.43</ele>
        <time>2019-11-12T15:21:38.001Z</time>
      </trkpt>
      <trkpt lat="48.84914" lon="-0.9166">
        <ele>126.214</ele>
        <time>2019-11-12T15:22:11.001Z</time>
      </trkpt>
      <trkpt lat="48.84834" lon="-0.91439">
        <ele>124.93</ele>
        <time>2019-11-12T15:22:44.001Z</time>
      </trkpt>
      <trkpt lat="48.84733" lon="-0.91157">
        <ele>122.318</ele>
        <time>2019-11-12T15:23:14.001Z</time>
      </trkpt>
      <trkpt lat="48.84832" lon="-0.90963">
        <ele>116.809</ele>
        <time>2019-11-12T15:23:47.001Z</time>
      </trkpt>
      <trkpt lat="48.85016" lon="-0.90792">
        <ele>111.763</ele>
        <time>2019-11-12T15:24:20.001Z</time>
      </trkpt>
      <trkpt lat="48.84996" lon="-0.90676">
        <ele>112.075</ele>
        <time>2019-11-12T15:24:50.001Z</time>
      </trkpt>
      <trkpt lat="48.85027" lon="-0.90587">
        <ele>111.544</ele>
        <time>2019-11-12T15:25:23.001Z</time>
      </trkpt>
      <trkpt lat="48.84956" lon="-0.90464">
        <ele>111.221</ele>
        <time>2019-11-12T15:25:56.001Z</time>
      </trkpt>
      <trkpt lat="48.8487" lon="-0.90306">
        <ele>104.843</ele>
        <time>2019-11-12T15:26:26.001Z</time>
      </trkpt>
      <trkpt lat="48.84799" lon="-0.90107">
        <ele>107.14</ele>
        <time>2019-11-12T15:26:59.001Z</time>
      </trkpt>
      <trkpt lat="48.84718" lon="-0.89943">
        <ele>105.656</ele>
        <time>2019-11-12T15:27:32.001Z</time>
      </trkpt>
      <trkpt lat="48.84624" lon="-0.89837">
        <ele>108.635</ele>
        <time>2019-11-12T15:28:02Z</time>
      </trkpt>
      <trkpt lat="48.84542" lon="-0.89729">
        <ele>116.506</ele>
        <time>2019-11-12T15:28:35.001Z</time>
      </trkpt>
      <trkpt lat="48.84553" lon="-0.89612">
        <ele>107.124</ele>
        <time>2019-11-12T15:29:05.001Z</time>
      </trkpt>
      <trkpt lat="48.8452" lon="-0.89515">
        <ele>113.545</ele>
        <time>2019-11-12T15:29:38.001Z</time>
      </trkpt>
      <trkpt lat="48.84461" lon="-0.89582">
        <ele>123.384</ele>
        <time>2019-11-12T15:30:11.001Z</time>
      </trkpt>
      <trkpt lat="48.84436" lon="-0.89674">
        <ele>126.76</ele>
        <time>2019-11-12T15:30:41.001Z</time>
      </trkpt>
      <trkpt lat="48.84412" lon="-0.89767">
        <ele>133.514</ele>
        <time>2019-11-12T15:31:14.001Z</time>
      </trkpt>
      <trkpt lat="48.84375" lon="-0.89848">
        <ele>141.043</ele>
        <time>2019-11-12T15:31:47.001Z</time>
      </trkpt>
      <trkpt lat="48.84328" lon="-0.89915">
        <ele>145.864</ele>
        <time>2019-11-12T15:32:17.001Z</time>
      </trkpt>
      <trkpt lat="48.84267" lon="-0.89953">
        <ele>147.48</ele>
        <time>2019-11-12T15:32:50.001Z</time>
      </trkpt>
      <trkpt lat="48.84243" lon="-0.89867">
        <ele>147.319</ele>
        <time>2019-11-12T15:33:23.001Z</time>
      </trkpt>
      <trkpt lat="48.84244" lon="-0.89774">
        <ele>151.419</ele>
        <time>2019-11-12T15:33:53.001Z</time>
      </trkpt>
      <trkpt lat="48.84211" lon="-0.89687">
        <ele>155.397</ele>
        <time>2019-11-12T15:34:26.001Z</time>
      </trkpt>
      <trkpt lat="48.84148" lon="-0.89643">
        <ele>165.56</ele>
        <time>2019-11-12T15:34:59.001Z</time>
      </trkpt>
      <trkpt lat="48.8409" lon="-0.89604">
        <ele>166.528</ele>
        <time>2019-11-12T15:35:29.001Z</time>
      </trkpt>
      <trkpt lat="48.84033" lon="-0.89553">
        <ele>171.532</ele>
        <time>2019-11-12T15:36:02Z</time>
      </trkpt>
      <trkpt lat="48.84017" lon="-0.89444">
        <ele>175.968</ele>
        <time>2019-11-12T15:36:35.001Z</time>
      </trkpt>
      <trkpt lat="48.84" lon="-0.89334">
        <ele>177.002</ele>
        <time>2019-11-12T15:37:05.001Z</time>
      </trkpt>
      <trkpt lat="48.83994" lon="-0.89175">
        <ele>185.409</ele>
        <time>2019-11-12T15:37:38.001Z</time>
      </trkpt>
      <trkpt lat="48.83982" lon="-0.89066">
        <ele>186.118</ele>
        <time>2019-11-12T15:38:56.001Z</time>
      </trkpt>
    </trkseg>
  </trk>
</gpx>